<?xml version="1.0" encoding="UTF-8" standalone="no" ?>
<gpx xmlns="http://www.topografix.com/GPX/1/1" xmlns:xsi="http://www.w3.org/2001/XMLSchema-instance" xsi:schemaLocation="http://www.topografix.com/GPX/1/1 http://www.topografix.com/GPX/1/1/gpx.xsd" version="1.1" creator="VisuGPX - https://www.visugpx.com">
  <metadata>
    <name>83-V-Aups</name>
    <desc><![CDATA[83-V-Aups : l\'Aigle de Cugulons]]></desc>
  </metadata>
  <trk>
    <name><![CDATA[2012-03-23-aups]]></name>
    <trkseg>
      <trkpt lat="43.66232" lon="6.22642">
        <ele>800.435058</ele>
        <time>2012-03-23T13:08:18Z</time>
      </trkpt>
      <trkpt lat="43.66223" lon="6.22642">
        <ele>799.815124</ele>
        <time>2012-03-23T13:09:26Z</time>
      </trkpt>
      <trkpt lat="43.66223" lon="6.22642">
        <ele>799.848144</ele>
        <time>2012-03-23T13:09:27Z</time>
      </trkpt>
      <trkpt lat="43.66209" lon="6.22632">
        <ele>800.9</ele>
        <time>2012-03-23T13:10:06Z</time>
      </trkpt>
      <trkpt lat="43.66204" lon="6.22622">
        <ele>801.4</ele>
        <time>2012-03-23T13:11:05Z</time>
      </trkpt>
      <trkpt lat="43.66204" lon="6.22621">
        <ele>801.7</ele>
        <time>2012-03-23T13:11:06Z</time>
      </trkpt>
      <trkpt lat="43.66212" lon="6.226">
        <ele>803.7</ele>
        <time>2012-03-23T13:12:03Z</time>
      </trkpt>
      <trkpt lat="43.66215" lon="6.2259">
        <ele>804.2</ele>
        <time>2012-03-23T13:12:34Z</time>
      </trkpt>
      <trkpt lat="43.66216" lon="6.22589">
        <ele>803.9</ele>
        <time>2012-03-23T13:12:35Z</time>
      </trkpt>
      <trkpt lat="43.66223" lon="6.22568">
        <ele>808.1</ele>
        <time>2012-03-23T13:12:54Z</time>
      </trkpt>
      <trkpt lat="43.66225" lon="6.22557">
        <ele>807.9</ele>
        <time>2012-03-23T13:13:03Z</time>
      </trkpt>
      <trkpt lat="43.66227" lon="6.22545">
        <ele>808.2</ele>
        <time>2012-03-23T13:13:12Z</time>
      </trkpt>
      <trkpt lat="43.66226" lon="6.22534">
        <ele>809.4</ele>
        <time>2012-03-23T13:13:21Z</time>
      </trkpt>
      <trkpt lat="43.66222" lon="6.22524">
        <ele>811.8</ele>
        <time>2012-03-23T13:13:30Z</time>
      </trkpt>
      <trkpt lat="43.66215" lon="6.22516">
        <ele>811.6</ele>
        <time>2012-03-23T13:13:40Z</time>
      </trkpt>
      <trkpt lat="43.66214" lon="6.22516">
        <ele>811.9</ele>
        <time>2012-03-23T13:13:41Z</time>
      </trkpt>
      <trkpt lat="43.66202" lon="6.22503">
        <ele>814.1</ele>
        <time>2012-03-23T13:13:59Z</time>
      </trkpt>
      <trkpt lat="43.66198" lon="6.22492">
        <ele>814.8</ele>
        <time>2012-03-23T13:14:08Z</time>
      </trkpt>
      <trkpt lat="43.66196" lon="6.22481">
        <ele>816.5</ele>
        <time>2012-03-23T13:14:17Z</time>
      </trkpt>
      <trkpt lat="43.66193" lon="6.2247">
        <ele>817.7</ele>
        <time>2012-03-23T13:14:26Z</time>
      </trkpt>
      <trkpt lat="43.6619" lon="6.2246">
        <ele>818.4</ele>
        <time>2012-03-23T13:14:35Z</time>
      </trkpt>
      <trkpt lat="43.66187" lon="6.22448">
        <ele>819.3</ele>
        <time>2012-03-23T13:14:44Z</time>
      </trkpt>
      <trkpt lat="43.66186" lon="6.22447">
        <ele>819.5</ele>
        <time>2012-03-23T13:14:45Z</time>
      </trkpt>
      <trkpt lat="43.66182" lon="6.22426">
        <ele>820.6</ele>
        <time>2012-03-23T13:15:00Z</time>
      </trkpt>
      <trkpt lat="43.66182" lon="6.22415">
        <ele>820.5</ele>
        <time>2012-03-23T13:15:08Z</time>
      </trkpt>
      <trkpt lat="43.66181" lon="6.22402">
        <ele>821</ele>
        <time>2012-03-23T13:15:20Z</time>
      </trkpt>
      <trkpt lat="43.6618" lon="6.2239">
        <ele>821.7</ele>
        <time>2012-03-23T13:15:31Z</time>
      </trkpt>
      <trkpt lat="43.6618" lon="6.22379">
        <ele>821.6</ele>
        <time>2012-03-23T13:15:41Z</time>
      </trkpt>
      <trkpt lat="43.6618" lon="6.22367">
        <ele>821.8</ele>
        <time>2012-03-23T13:15:50Z</time>
      </trkpt>
      <trkpt lat="43.6618" lon="6.22365">
        <ele>821.5</ele>
        <time>2012-03-23T13:15:51Z</time>
      </trkpt>
      <trkpt lat="43.66184" lon="6.22344">
        <ele>823.6</ele>
        <time>2012-03-23T13:16:08Z</time>
      </trkpt>
      <trkpt lat="43.66187" lon="6.22334">
        <ele>824.2</ele>
        <time>2012-03-23T13:16:17Z</time>
      </trkpt>
      <trkpt lat="43.66189" lon="6.22322">
        <ele>824.3</ele>
        <time>2012-03-23T13:16:28Z</time>
      </trkpt>
      <trkpt lat="43.6619" lon="6.2231">
        <ele>825</ele>
        <time>2012-03-23T13:16:39Z</time>
      </trkpt>
      <trkpt lat="43.6619" lon="6.22297">
        <ele>826.1</ele>
        <time>2012-03-23T13:16:48Z</time>
      </trkpt>
      <trkpt lat="43.66191" lon="6.22286">
        <ele>826.2</ele>
        <time>2012-03-23T13:16:56Z</time>
      </trkpt>
      <trkpt lat="43.66191" lon="6.22285">
        <ele>825.4</ele>
        <time>2012-03-23T13:16:57Z</time>
      </trkpt>
      <trkpt lat="43.66196" lon="6.22263">
        <ele>825.4</ele>
        <time>2012-03-23T13:17:13Z</time>
      </trkpt>
      <trkpt lat="43.66198" lon="6.22251">
        <ele>827.2</ele>
        <time>2012-03-23T13:17:21Z</time>
      </trkpt>
      <trkpt lat="43.66199" lon="6.22239">
        <ele>827.5</ele>
        <time>2012-03-23T13:17:29Z</time>
      </trkpt>
      <trkpt lat="43.662" lon="6.22227">
        <ele>827.8</ele>
        <time>2012-03-23T13:17:38Z</time>
      </trkpt>
      <trkpt lat="43.66201" lon="6.22215">
        <ele>827.9</ele>
        <time>2012-03-23T13:17:48Z</time>
      </trkpt>
      <trkpt lat="43.66203" lon="6.22203">
        <ele>829.6</ele>
        <time>2012-03-23T13:17:58Z</time>
      </trkpt>
      <trkpt lat="43.66203" lon="6.22202">
        <ele>829.9</ele>
        <time>2012-03-23T13:17:59Z</time>
      </trkpt>
      <trkpt lat="43.66208" lon="6.22181">
        <ele>830.3</ele>
        <time>2012-03-23T13:18:15Z</time>
      </trkpt>
      <trkpt lat="43.66211" lon="6.2217">
        <ele>829.6</ele>
        <time>2012-03-23T13:18:23Z</time>
      </trkpt>
      <trkpt lat="43.66215" lon="6.22159">
        <ele>830</ele>
        <time>2012-03-23T13:18:31Z</time>
      </trkpt>
      <trkpt lat="43.66219" lon="6.22148">
        <ele>831</ele>
        <time>2012-03-23T13:18:40Z</time>
      </trkpt>
      <trkpt lat="43.66222" lon="6.22138">
        <ele>831.1</ele>
        <time>2012-03-23T13:18:48Z</time>
      </trkpt>
      <trkpt lat="43.66225" lon="6.22127">
        <ele>829.1</ele>
        <time>2012-03-23T13:18:57Z</time>
      </trkpt>
      <trkpt lat="43.66228" lon="6.22116">
        <ele>828.7</ele>
        <time>2012-03-23T13:19:05Z</time>
      </trkpt>
      <trkpt lat="43.66229" lon="6.22115">
        <ele>828.7</ele>
        <time>2012-03-23T13:19:06Z</time>
      </trkpt>
      <trkpt lat="43.66236" lon="6.22094">
        <ele>830.7</ele>
        <time>2012-03-23T13:19:22Z</time>
      </trkpt>
      <trkpt lat="43.66241" lon="6.22084">
        <ele>830</ele>
        <time>2012-03-23T13:19:33Z</time>
      </trkpt>
      <trkpt lat="43.66246" lon="6.22075">
        <ele>832.2</ele>
        <time>2012-03-23T13:19:42Z</time>
      </trkpt>
      <trkpt lat="43.66251" lon="6.22066">
        <ele>831.8</ele>
        <time>2012-03-23T13:19:50Z</time>
      </trkpt>
      <trkpt lat="43.66259" lon="6.2206">
        <ele>833.1</ele>
        <time>2012-03-23T13:19:58Z</time>
      </trkpt>
      <trkpt lat="43.66266" lon="6.22053">
        <ele>834.3</ele>
        <time>2012-03-23T13:20:07Z</time>
      </trkpt>
      <trkpt lat="43.66267" lon="6.22052">
        <ele>834.7</ele>
        <time>2012-03-23T13:20:08Z</time>
      </trkpt>
      <trkpt lat="43.66279" lon="6.22037">
        <ele>836.1</ele>
        <time>2012-03-23T13:20:26Z</time>
      </trkpt>
      <trkpt lat="43.66285" lon="6.22029">
        <ele>837.3</ele>
        <time>2012-03-23T13:20:35Z</time>
      </trkpt>
      <trkpt lat="43.66289" lon="6.22019">
        <ele>837.9</ele>
        <time>2012-03-23T13:20:44Z</time>
      </trkpt>
      <trkpt lat="43.66292" lon="6.22008">
        <ele>838.3</ele>
        <time>2012-03-23T13:20:53Z</time>
      </trkpt>
      <trkpt lat="43.66294" lon="6.21996">
        <ele>840.2</ele>
        <time>2012-03-23T13:21:02Z</time>
      </trkpt>
      <trkpt lat="43.66297" lon="6.21986">
        <ele>839.5</ele>
        <time>2012-03-23T13:21:09Z</time>
      </trkpt>
      <trkpt lat="43.66297" lon="6.21984">
        <ele>839.9</ele>
        <time>2012-03-23T13:21:10Z</time>
      </trkpt>
      <trkpt lat="43.66302" lon="6.21964">
        <ele>839.5</ele>
        <time>2012-03-23T13:21:26Z</time>
      </trkpt>
      <trkpt lat="43.66305" lon="6.21952">
        <ele>840.1</ele>
        <time>2012-03-23T13:21:35Z</time>
      </trkpt>
      <trkpt lat="43.66307" lon="6.2194">
        <ele>839.9</ele>
        <time>2012-03-23T13:21:44Z</time>
      </trkpt>
      <trkpt lat="43.66309" lon="6.21928">
        <ele>839.6</ele>
        <time>2012-03-23T13:21:53Z</time>
      </trkpt>
      <trkpt lat="43.66311" lon="6.21917">
        <ele>838.5</ele>
        <time>2012-03-23T13:22:01Z</time>
      </trkpt>
      <trkpt lat="43.66315" lon="6.21906">
        <ele>839.1</ele>
        <time>2012-03-23T13:22:10Z</time>
      </trkpt>
      <trkpt lat="43.66315" lon="6.21904">
        <ele>838.5</ele>
        <time>2012-03-23T13:22:11Z</time>
      </trkpt>
      <trkpt lat="43.66324" lon="6.21887">
        <ele>838.5</ele>
        <time>2012-03-23T13:22:26Z</time>
      </trkpt>
      <trkpt lat="43.66329" lon="6.21878">
        <ele>837.7</ele>
        <time>2012-03-23T13:22:34Z</time>
      </trkpt>
      <trkpt lat="43.66336" lon="6.21869">
        <ele>838.4</ele>
        <time>2012-03-23T13:22:43Z</time>
      </trkpt>
      <trkpt lat="43.66342" lon="6.2186">
        <ele>837.3</ele>
        <time>2012-03-23T13:22:52Z</time>
      </trkpt>
      <trkpt lat="43.66348" lon="6.21851">
        <ele>838.2</ele>
        <time>2012-03-23T13:23:01Z</time>
      </trkpt>
      <trkpt lat="43.66353" lon="6.21842">
        <ele>838.4</ele>
        <time>2012-03-23T13:23:10Z</time>
      </trkpt>
      <trkpt lat="43.66358" lon="6.21832">
        <ele>835.9</ele>
        <time>2012-03-23T13:23:19Z</time>
      </trkpt>
      <trkpt lat="43.66358" lon="6.21831">
        <ele>835.2</ele>
        <time>2012-03-23T13:23:20Z</time>
      </trkpt>
      <trkpt lat="43.66366" lon="6.21812">
        <ele>835.4</ele>
        <time>2012-03-23T13:24:40Z</time>
      </trkpt>
      <trkpt lat="43.66367" lon="6.21811">
        <ele>835.1</ele>
        <time>2012-03-23T13:24:41Z</time>
      </trkpt>
      <trkpt lat="43.66376" lon="6.21792">
        <ele>834.7</ele>
        <time>2012-03-23T13:25:00Z</time>
      </trkpt>
      <trkpt lat="43.66381" lon="6.21782">
        <ele>833.7</ele>
        <time>2012-03-23T13:25:09Z</time>
      </trkpt>
      <trkpt lat="43.66385" lon="6.21772">
        <ele>834</ele>
        <time>2012-03-23T13:25:18Z</time>
      </trkpt>
      <trkpt lat="43.6639" lon="6.21762">
        <ele>833.7</ele>
        <time>2012-03-23T13:25:27Z</time>
      </trkpt>
      <trkpt lat="43.66395" lon="6.21752">
        <ele>834</ele>
        <time>2012-03-23T13:25:36Z</time>
      </trkpt>
      <trkpt lat="43.66398" lon="6.2174">
        <ele>833.6</ele>
        <time>2012-03-23T13:25:45Z</time>
      </trkpt>
      <trkpt lat="43.66399" lon="6.21739">
        <ele>834</ele>
        <time>2012-03-23T13:25:46Z</time>
      </trkpt>
      <trkpt lat="43.66407" lon="6.2172">
        <ele>830.3</ele>
        <time>2012-03-23T13:26:02Z</time>
      </trkpt>
      <trkpt lat="43.66412" lon="6.21711">
        <ele>830</ele>
        <time>2012-03-23T13:26:10Z</time>
      </trkpt>
      <trkpt lat="43.66417" lon="6.21703">
        <ele>830.1</ele>
        <time>2012-03-23T13:26:18Z</time>
      </trkpt>
      <trkpt lat="43.66424" lon="6.21696">
        <ele>829.7</ele>
        <time>2012-03-23T13:26:27Z</time>
      </trkpt>
      <trkpt lat="43.6643" lon="6.21687">
        <ele>827.4</ele>
        <time>2012-03-23T13:26:36Z</time>
      </trkpt>
      <trkpt lat="43.66436" lon="6.21679">
        <ele>826.8</ele>
        <time>2012-03-23T13:26:44Z</time>
      </trkpt>
      <trkpt lat="43.66441" lon="6.2167">
        <ele>827.4</ele>
        <time>2012-03-23T13:26:53Z</time>
      </trkpt>
      <trkpt lat="43.66442" lon="6.21669">
        <ele>827.5</ele>
        <time>2012-03-23T13:26:54Z</time>
      </trkpt>
      <trkpt lat="43.66447" lon="6.21649">
        <ele>826.8</ele>
        <time>2012-03-23T13:27:09Z</time>
      </trkpt>
      <trkpt lat="43.66448" lon="6.21637">
        <ele>827.5</ele>
        <time>2012-03-23T13:27:18Z</time>
      </trkpt>
      <trkpt lat="43.6645" lon="6.21626">
        <ele>827.1</ele>
        <time>2012-03-23T13:27:26Z</time>
      </trkpt>
      <trkpt lat="43.66452" lon="6.21615">
        <ele>827.1</ele>
        <time>2012-03-23T13:27:34Z</time>
      </trkpt>
      <trkpt lat="43.66456" lon="6.21604">
        <ele>827.3</ele>
        <time>2012-03-23T13:27:43Z</time>
      </trkpt>
      <trkpt lat="43.66459" lon="6.21593">
        <ele>827</ele>
        <time>2012-03-23T13:27:53Z</time>
      </trkpt>
      <trkpt lat="43.66462" lon="6.21581">
        <ele>826.9</ele>
        <time>2012-03-23T13:28:03Z</time>
      </trkpt>
      <trkpt lat="43.66462" lon="6.2158">
        <ele>827.5</ele>
        <time>2012-03-23T13:28:04Z</time>
      </trkpt>
      <trkpt lat="43.66466" lon="6.21558">
        <ele>828.8</ele>
        <time>2012-03-23T13:28:24Z</time>
      </trkpt>
      <trkpt lat="43.66468" lon="6.21547">
        <ele>830.7</ele>
        <time>2012-03-23T13:28:34Z</time>
      </trkpt>
      <trkpt lat="43.66471" lon="6.21536">
        <ele>831.6</ele>
        <time>2012-03-23T13:28:44Z</time>
      </trkpt>
      <trkpt lat="43.66473" lon="6.21525">
        <ele>833.1</ele>
        <time>2012-03-23T13:28:54Z</time>
      </trkpt>
      <trkpt lat="43.66475" lon="6.21513">
        <ele>834.6</ele>
        <time>2012-03-23T13:29:05Z</time>
      </trkpt>
      <trkpt lat="43.66476" lon="6.21512">
        <ele>835.1</ele>
        <time>2012-03-23T13:29:06Z</time>
      </trkpt>
      <trkpt lat="43.66479" lon="6.2149">
        <ele>837.4</ele>
        <time>2012-03-23T13:29:28Z</time>
      </trkpt>
      <trkpt lat="43.66481" lon="6.21478">
        <ele>837.9</ele>
        <time>2012-03-23T13:29:39Z</time>
      </trkpt>
      <trkpt lat="43.66485" lon="6.21468">
        <ele>839.9</ele>
        <time>2012-03-23T13:29:50Z</time>
      </trkpt>
      <trkpt lat="43.66491" lon="6.21459">
        <ele>842.5</ele>
        <time>2012-03-23T13:30:00Z</time>
      </trkpt>
      <trkpt lat="43.66497" lon="6.21451">
        <ele>842.9</ele>
        <time>2012-03-23T13:30:09Z</time>
      </trkpt>
      <trkpt lat="43.66497" lon="6.2145">
        <ele>842.8</ele>
        <time>2012-03-23T13:30:10Z</time>
      </trkpt>
      <trkpt lat="43.6651" lon="6.21436">
        <ele>844.6</ele>
        <time>2012-03-23T13:30:30Z</time>
      </trkpt>
      <trkpt lat="43.66518" lon="6.21431">
        <ele>846.9</ele>
        <time>2012-03-23T13:30:40Z</time>
      </trkpt>
      <trkpt lat="43.66526" lon="6.21429">
        <ele>847.8</ele>
        <time>2012-03-23T13:30:51Z</time>
      </trkpt>
      <trkpt lat="43.66535" lon="6.21427">
        <ele>849.4</ele>
        <time>2012-03-23T13:31:01Z</time>
      </trkpt>
      <trkpt lat="43.66543" lon="6.21422">
        <ele>849.4</ele>
        <time>2012-03-23T13:31:11Z</time>
      </trkpt>
      <trkpt lat="43.66544" lon="6.21422">
        <ele>849.8</ele>
        <time>2012-03-23T13:31:12Z</time>
      </trkpt>
      <trkpt lat="43.66553" lon="6.21404">
        <ele>851.3</ele>
        <time>2012-03-23T13:32:42Z</time>
      </trkpt>
      <trkpt lat="43.66553" lon="6.21404">
        <ele>851.8</ele>
        <time>2012-03-23T13:32:43Z</time>
      </trkpt>
      <trkpt lat="43.66568" lon="6.21391">
        <ele>850.8</ele>
        <time>2012-03-23T13:33:07Z</time>
      </trkpt>
      <trkpt lat="43.66573" lon="6.21382">
        <ele>851.2</ele>
        <time>2012-03-23T13:33:19Z</time>
      </trkpt>
      <trkpt lat="43.66577" lon="6.21371">
        <ele>850.1</ele>
        <time>2012-03-23T13:33:28Z</time>
      </trkpt>
      <trkpt lat="43.66583" lon="6.21362">
        <ele>851.2</ele>
        <time>2012-03-23T13:33:37Z</time>
      </trkpt>
      <trkpt lat="43.66588" lon="6.21352">
        <ele>850.5</ele>
        <time>2012-03-23T13:33:45Z</time>
      </trkpt>
      <trkpt lat="43.66589" lon="6.21351">
        <ele>851.1</ele>
        <time>2012-03-23T13:33:46Z</time>
      </trkpt>
      <trkpt lat="43.666" lon="6.21336">
        <ele>851.9</ele>
        <time>2012-03-23T13:34:02Z</time>
      </trkpt>
      <trkpt lat="43.66607" lon="6.2133">
        <ele>854.2</ele>
        <time>2012-03-23T13:34:11Z</time>
      </trkpt>
      <trkpt lat="43.66615" lon="6.21326">
        <ele>853.8</ele>
        <time>2012-03-23T13:34:21Z</time>
      </trkpt>
      <trkpt lat="43.66623" lon="6.21323">
        <ele>854</ele>
        <time>2012-03-23T13:34:31Z</time>
      </trkpt>
      <trkpt lat="43.66631" lon="6.21318">
        <ele>855.1</ele>
        <time>2012-03-23T13:34:41Z</time>
      </trkpt>
      <trkpt lat="43.66639" lon="6.21314">
        <ele>856.1</ele>
        <time>2012-03-23T13:34:50Z</time>
      </trkpt>
      <trkpt lat="43.6664" lon="6.21313">
        <ele>856.1</ele>
        <time>2012-03-23T13:34:51Z</time>
      </trkpt>
      <trkpt lat="43.66653" lon="6.213">
        <ele>856.7</ele>
        <time>2012-03-23T13:35:09Z</time>
      </trkpt>
      <trkpt lat="43.66661" lon="6.21295">
        <ele>857.6</ele>
        <time>2012-03-23T13:35:19Z</time>
      </trkpt>
      <trkpt lat="43.66668" lon="6.21288">
        <ele>858.2</ele>
        <time>2012-03-23T13:35:31Z</time>
      </trkpt>
      <trkpt lat="43.66674" lon="6.2128">
        <ele>858.2</ele>
        <time>2012-03-23T13:35:43Z</time>
      </trkpt>
      <trkpt lat="43.6668" lon="6.21271">
        <ele>860.2</ele>
        <time>2012-03-23T13:35:54Z</time>
      </trkpt>
      <trkpt lat="43.66681" lon="6.21271">
        <ele>860.2</ele>
        <time>2012-03-23T13:35:55Z</time>
      </trkpt>
      <trkpt lat="43.66694" lon="6.21258">
        <ele>862.3</ele>
        <time>2012-03-23T13:36:17Z</time>
      </trkpt>
      <trkpt lat="43.667" lon="6.2125">
        <ele>865</ele>
        <time>2012-03-23T13:36:29Z</time>
      </trkpt>
      <trkpt lat="43.66706" lon="6.21241">
        <ele>865.8</ele>
        <time>2012-03-23T13:36:41Z</time>
      </trkpt>
      <trkpt lat="43.66712" lon="6.21233">
        <ele>868</ele>
        <time>2012-03-23T13:36:53Z</time>
      </trkpt>
      <trkpt lat="43.66719" lon="6.21225">
        <ele>868.4</ele>
        <time>2012-03-23T13:37:04Z</time>
      </trkpt>
      <trkpt lat="43.66719" lon="6.21225">
        <ele>868.6</ele>
        <time>2012-03-23T13:37:05Z</time>
      </trkpt>
      <trkpt lat="43.6673" lon="6.21207">
        <ele>871.1</ele>
        <time>2012-03-23T13:37:32Z</time>
      </trkpt>
      <trkpt lat="43.66737" lon="6.212">
        <ele>872.5</ele>
        <time>2012-03-23T13:37:45Z</time>
      </trkpt>
      <trkpt lat="43.66744" lon="6.21192">
        <ele>873.8</ele>
        <time>2012-03-23T13:37:57Z</time>
      </trkpt>
      <trkpt lat="43.6675" lon="6.21184">
        <ele>876.8</ele>
        <time>2012-03-23T13:38:11Z</time>
      </trkpt>
      <trkpt lat="43.6675" lon="6.21184">
        <ele>876.6</ele>
        <time>2012-03-23T13:38:12Z</time>
      </trkpt>
      <trkpt lat="43.66763" lon="6.21168">
        <ele>878.9</ele>
        <time>2012-03-23T13:38:34Z</time>
      </trkpt>
      <trkpt lat="43.6677" lon="6.21162">
        <ele>881</ele>
        <time>2012-03-23T13:38:45Z</time>
      </trkpt>
      <trkpt lat="43.66777" lon="6.21155">
        <ele>882.9</ele>
        <time>2012-03-23T13:38:56Z</time>
      </trkpt>
      <trkpt lat="43.66783" lon="6.21145">
        <ele>883.1</ele>
        <time>2012-03-23T13:39:09Z</time>
      </trkpt>
      <trkpt lat="43.66788" lon="6.21137">
        <ele>886</ele>
        <time>2012-03-23T13:39:20Z</time>
      </trkpt>
      <trkpt lat="43.66789" lon="6.21136">
        <ele>885.9</ele>
        <time>2012-03-23T13:39:21Z</time>
      </trkpt>
      <trkpt lat="43.66801" lon="6.21121">
        <ele>888.2</ele>
        <time>2012-03-23T13:39:40Z</time>
      </trkpt>
      <trkpt lat="43.66808" lon="6.21113">
        <ele>887.7</ele>
        <time>2012-03-23T13:39:50Z</time>
      </trkpt>
      <trkpt lat="43.66815" lon="6.21108">
        <ele>890.3</ele>
        <time>2012-03-23T13:40:15Z</time>
      </trkpt>
      <trkpt lat="43.66821" lon="6.21098">
        <ele>891.1</ele>
        <time>2012-03-23T13:42:06Z</time>
      </trkpt>
      <trkpt lat="43.66821" lon="6.21097">
        <ele>891.5</ele>
        <time>2012-03-23T13:42:07Z</time>
      </trkpt>
      <trkpt lat="43.66835" lon="6.21085">
        <ele>895</ele>
        <time>2012-03-23T13:42:36Z</time>
      </trkpt>
      <trkpt lat="43.66843" lon="6.21081">
        <ele>896.6</ele>
        <time>2012-03-23T13:42:48Z</time>
      </trkpt>
      <trkpt lat="43.66852" lon="6.21079">
        <ele>898.1</ele>
        <time>2012-03-23T13:42:59Z</time>
      </trkpt>
      <trkpt lat="43.6686" lon="6.21075">
        <ele>899</ele>
        <time>2012-03-23T13:43:10Z</time>
      </trkpt>
      <trkpt lat="43.66861" lon="6.21074">
        <ele>898.8</ele>
        <time>2012-03-23T13:43:11Z</time>
      </trkpt>
      <trkpt lat="43.66874" lon="6.21062">
        <ele>903.1</ele>
        <time>2012-03-23T13:43:33Z</time>
      </trkpt>
      <trkpt lat="43.66881" lon="6.21055">
        <ele>903.4</ele>
        <time>2012-03-23T13:43:43Z</time>
      </trkpt>
      <trkpt lat="43.66889" lon="6.21051">
        <ele>903.3</ele>
        <time>2012-03-23T13:43:51Z</time>
      </trkpt>
      <trkpt lat="43.66896" lon="6.21045">
        <ele>903.7</ele>
        <time>2012-03-23T13:44:02Z</time>
      </trkpt>
      <trkpt lat="43.66902" lon="6.21036">
        <ele>904.7</ele>
        <time>2012-03-23T13:44:15Z</time>
      </trkpt>
      <trkpt lat="43.66902" lon="6.21035">
        <ele>904.7</ele>
        <time>2012-03-23T13:44:16Z</time>
      </trkpt>
      <trkpt lat="43.66911" lon="6.21016">
        <ele>905.5</ele>
        <time>2012-03-23T13:44:38Z</time>
      </trkpt>
      <trkpt lat="43.66916" lon="6.21006">
        <ele>905.4</ele>
        <time>2012-03-23T13:44:50Z</time>
      </trkpt>
      <trkpt lat="43.6692" lon="6.20996">
        <ele>905.9</ele>
        <time>2012-03-23T13:45:02Z</time>
      </trkpt>
      <trkpt lat="43.66925" lon="6.20986">
        <ele>906.8</ele>
        <time>2012-03-23T13:45:13Z</time>
      </trkpt>
      <trkpt lat="43.66929" lon="6.20975">
        <ele>908.3</ele>
        <time>2012-03-23T13:45:24Z</time>
      </trkpt>
      <trkpt lat="43.6693" lon="6.20974">
        <ele>908.4</ele>
        <time>2012-03-23T13:45:25Z</time>
      </trkpt>
      <trkpt lat="43.66937" lon="6.20955">
        <ele>910.1</ele>
        <time>2012-03-23T13:45:46Z</time>
      </trkpt>
      <trkpt lat="43.66941" lon="6.20944">
        <ele>911.2</ele>
        <time>2012-03-23T13:45:56Z</time>
      </trkpt>
      <trkpt lat="43.66946" lon="6.20933">
        <ele>911.9</ele>
        <time>2012-03-23T13:46:07Z</time>
      </trkpt>
      <trkpt lat="43.66949" lon="6.20922">
        <ele>913.5</ele>
        <time>2012-03-23T13:46:20Z</time>
      </trkpt>
      <trkpt lat="43.66953" lon="6.20911">
        <ele>914.9</ele>
        <time>2012-03-23T13:46:34Z</time>
      </trkpt>
      <trkpt lat="43.66953" lon="6.2091">
        <ele>915.5</ele>
        <time>2012-03-23T13:46:35Z</time>
      </trkpt>
      <trkpt lat="43.66961" lon="6.2089">
        <ele>919.2</ele>
        <time>2012-03-23T13:47:00Z</time>
      </trkpt>
      <trkpt lat="43.66966" lon="6.2088">
        <ele>921</ele>
        <time>2012-03-23T13:47:14Z</time>
      </trkpt>
      <trkpt lat="43.66972" lon="6.20872">
        <ele>922.9</ele>
        <time>2012-03-23T13:47:28Z</time>
      </trkpt>
      <trkpt lat="43.66979" lon="6.20864">
        <ele>923.3</ele>
        <time>2012-03-23T13:47:39Z</time>
      </trkpt>
      <trkpt lat="43.66979" lon="6.20863">
        <ele>923.7</ele>
        <time>2012-03-23T13:47:40Z</time>
      </trkpt>
      <trkpt lat="43.66993" lon="6.20852">
        <ele>925</ele>
        <time>2012-03-23T13:48:05Z</time>
      </trkpt>
      <trkpt lat="43.66999" lon="6.20844">
        <ele>925.8</ele>
        <time>2012-03-23T13:48:12Z</time>
      </trkpt>
      <trkpt lat="43.67006" lon="6.20837">
        <ele>926.9</ele>
        <time>2012-03-23T13:48:21Z</time>
      </trkpt>
      <trkpt lat="43.67012" lon="6.20829">
        <ele>928.9</ele>
        <time>2012-03-23T13:48:31Z</time>
      </trkpt>
      <trkpt lat="43.67019" lon="6.20822">
        <ele>929.1</ele>
        <time>2012-03-23T13:48:41Z</time>
      </trkpt>
      <trkpt lat="43.6702" lon="6.20821">
        <ele>929.8</ele>
        <time>2012-03-23T13:48:42Z</time>
      </trkpt>
      <trkpt lat="43.67033" lon="6.20808">
        <ele>931.7</ele>
        <time>2012-03-23T13:49:01Z</time>
      </trkpt>
      <trkpt lat="43.67041" lon="6.20802">
        <ele>932.1</ele>
        <time>2012-03-23T13:49:11Z</time>
      </trkpt>
      <trkpt lat="43.67047" lon="6.20794">
        <ele>933.5</ele>
        <time>2012-03-23T13:49:20Z</time>
      </trkpt>
      <trkpt lat="43.67053" lon="6.20785">
        <ele>933.9</ele>
        <time>2012-03-23T13:49:36Z</time>
      </trkpt>
      <trkpt lat="43.6706" lon="6.20778">
        <ele>933.5</ele>
        <time>2012-03-23T13:52:49Z</time>
      </trkpt>
      <trkpt lat="43.6706" lon="6.20778">
        <ele>933.5</ele>
        <time>2012-03-23T13:52:50Z</time>
      </trkpt>
      <trkpt lat="43.67068" lon="6.20771">
        <ele>934.6</ele>
        <time>2012-03-23T13:54:51Z</time>
      </trkpt>
      <trkpt lat="43.67077" lon="6.20753">
        <ele>934.3</ele>
        <time>2012-03-23T13:55:10Z</time>
      </trkpt>
      <trkpt lat="43.67084" lon="6.20745">
        <ele>934.1</ele>
        <time>2012-03-23T13:55:20Z</time>
      </trkpt>
      <trkpt lat="43.67091" lon="6.20737">
        <ele>933.1</ele>
        <time>2012-03-23T13:55:31Z</time>
      </trkpt>
      <trkpt lat="43.67097" lon="6.2073">
        <ele>933.4</ele>
        <time>2012-03-23T13:55:41Z</time>
      </trkpt>
      <trkpt lat="43.67103" lon="6.20721">
        <ele>934.7</ele>
        <time>2012-03-23T13:55:51Z</time>
      </trkpt>
      <trkpt lat="43.67103" lon="6.2072">
        <ele>934.9</ele>
        <time>2012-03-23T13:55:52Z</time>
      </trkpt>
      <trkpt lat="43.67116" lon="6.20706">
        <ele>938.8</ele>
        <time>2012-03-23T13:56:17Z</time>
      </trkpt>
      <trkpt lat="43.67122" lon="6.20697">
        <ele>940.8</ele>
        <time>2012-03-23T13:56:35Z</time>
      </trkpt>
      <trkpt lat="43.67129" lon="6.20692">
        <ele>942.4</ele>
        <time>2012-03-23T13:56:47Z</time>
      </trkpt>
      <trkpt lat="43.67137" lon="6.20687">
        <ele>942.4</ele>
        <time>2012-03-23T13:59:17Z</time>
      </trkpt>
      <trkpt lat="43.67138" lon="6.20687">
        <ele>942.5</ele>
        <time>2012-03-23T13:59:18Z</time>
      </trkpt>
      <trkpt lat="43.67154" lon="6.2068">
        <ele>945</ele>
        <time>2012-03-23T14:00:15Z</time>
      </trkpt>
      <trkpt lat="43.67162" lon="6.20674">
        <ele>947.6</ele>
        <time>2012-03-23T14:00:30Z</time>
      </trkpt>
      <trkpt lat="43.67162" lon="6.20673">
        <ele>947.5</ele>
        <time>2012-03-23T14:00:31Z</time>
      </trkpt>
      <trkpt lat="43.67175" lon="6.2066">
        <ele>951.8</ele>
        <time>2012-03-23T14:00:59Z</time>
      </trkpt>
      <trkpt lat="43.67183" lon="6.20655">
        <ele>953.2</ele>
        <time>2012-03-23T14:01:12Z</time>
      </trkpt>
      <trkpt lat="43.67191" lon="6.20651">
        <ele>955.1</ele>
        <time>2012-03-23T14:01:25Z</time>
      </trkpt>
      <trkpt lat="43.67199" lon="6.20645">
        <ele>955.9</ele>
        <time>2012-03-23T14:01:37Z</time>
      </trkpt>
      <trkpt lat="43.67199" lon="6.20644">
        <ele>955.9</ele>
        <time>2012-03-23T14:01:38Z</time>
      </trkpt>
      <trkpt lat="43.67208" lon="6.20625">
        <ele>958.5</ele>
        <time>2012-03-23T14:02:30Z</time>
      </trkpt>
      <trkpt lat="43.67215" lon="6.20618">
        <ele>959.9</ele>
        <time>2012-03-23T14:02:45Z</time>
      </trkpt>
      <trkpt lat="43.67216" lon="6.20617">
        <ele>960</ele>
        <time>2012-03-23T14:02:46Z</time>
      </trkpt>
      <trkpt lat="43.67229" lon="6.20604">
        <ele>957.1</ele>
        <time>2012-03-23T14:03:16Z</time>
      </trkpt>
      <trkpt lat="43.67237" lon="6.206">
        <ele>954.9</ele>
        <time>2012-03-23T14:03:32Z</time>
      </trkpt>
      <trkpt lat="43.67245" lon="6.20594">
        <ele>951.5</ele>
        <time>2012-03-23T14:03:53Z</time>
      </trkpt>
      <trkpt lat="43.67246" lon="6.20593">
        <ele>951</ele>
        <time>2012-03-23T14:03:54Z</time>
      </trkpt>
      <trkpt lat="43.67261" lon="6.20582">
        <ele>947.7</ele>
        <time>2012-03-23T14:04:23Z</time>
      </trkpt>
      <trkpt lat="43.67269" lon="6.20578">
        <ele>946.9</ele>
        <time>2012-03-23T14:04:34Z</time>
      </trkpt>
      <trkpt lat="43.67277" lon="6.2058">
        <ele>945</ele>
        <time>2012-03-23T14:04:43Z</time>
      </trkpt>
      <trkpt lat="43.67286" lon="6.20579">
        <ele>945.2</ele>
        <time>2012-03-23T14:04:53Z</time>
      </trkpt>
      <trkpt lat="43.67295" lon="6.20577">
        <ele>943.6</ele>
        <time>2012-03-23T14:05:06Z</time>
      </trkpt>
      <trkpt lat="43.67295" lon="6.20578">
        <ele>943.4</ele>
        <time>2012-03-23T14:05:07Z</time>
      </trkpt>
      <trkpt lat="43.6731" lon="6.20576">
        <ele>946.2</ele>
        <time>2012-03-23T14:05:25Z</time>
      </trkpt>
      <trkpt lat="43.67318" lon="6.20569">
        <ele>947.9</ele>
        <time>2012-03-23T14:05:35Z</time>
      </trkpt>
      <trkpt lat="43.67325" lon="6.20564">
        <ele>946.7</ele>
        <time>2012-03-23T14:06:15Z</time>
      </trkpt>
      <trkpt lat="43.67326" lon="6.20563">
        <ele>946.6</ele>
        <time>2012-03-23T14:06:16Z</time>
      </trkpt>
      <trkpt lat="43.67337" lon="6.20546">
        <ele>949.1</ele>
        <time>2012-03-23T14:06:49Z</time>
      </trkpt>
      <trkpt lat="43.67342" lon="6.20536">
        <ele>948.9</ele>
        <time>2012-03-23T14:06:59Z</time>
      </trkpt>
      <trkpt lat="43.67345" lon="6.20525">
        <ele>948.3</ele>
        <time>2012-03-23T14:07:09Z</time>
      </trkpt>
      <trkpt lat="43.6735" lon="6.20515">
        <ele>950.3</ele>
        <time>2012-03-23T14:07:20Z</time>
      </trkpt>
      <trkpt lat="43.67351" lon="6.20514">
        <ele>950.5</ele>
        <time>2012-03-23T14:07:21Z</time>
      </trkpt>
      <trkpt lat="43.67362" lon="6.20497">
        <ele>952.8</ele>
        <time>2012-03-23T14:07:46Z</time>
      </trkpt>
      <trkpt lat="43.67365" lon="6.20486">
        <ele>954</ele>
        <time>2012-03-23T14:07:59Z</time>
      </trkpt>
      <trkpt lat="43.67367" lon="6.20475">
        <ele>955.8</ele>
        <time>2012-03-23T14:08:12Z</time>
      </trkpt>
      <trkpt lat="43.6737" lon="6.20464">
        <ele>955.1</ele>
        <time>2012-03-23T14:08:26Z</time>
      </trkpt>
      <trkpt lat="43.67371" lon="6.20463">
        <ele>955.4</ele>
        <time>2012-03-23T14:08:27Z</time>
      </trkpt>
      <trkpt lat="43.67381" lon="6.20444">
        <ele>958.1</ele>
        <time>2012-03-23T14:09:04Z</time>
      </trkpt>
      <trkpt lat="43.67386" lon="6.20434">
        <ele>958.3</ele>
        <time>2012-03-23T14:09:22Z</time>
      </trkpt>
      <trkpt lat="43.67391" lon="6.20424">
        <ele>959.8</ele>
        <time>2012-03-23T14:09:34Z</time>
      </trkpt>
      <trkpt lat="43.67392" lon="6.20423">
        <ele>960</ele>
        <time>2012-03-23T14:09:35Z</time>
      </trkpt>
      <trkpt lat="43.67401" lon="6.20405">
        <ele>962.6</ele>
        <time>2012-03-23T14:10:02Z</time>
      </trkpt>
      <trkpt lat="43.67406" lon="6.20396">
        <ele>963.8</ele>
        <time>2012-03-23T14:10:12Z</time>
      </trkpt>
      <trkpt lat="43.67412" lon="6.20387">
        <ele>965.4</ele>
        <time>2012-03-23T14:10:23Z</time>
      </trkpt>
      <trkpt lat="43.67419" lon="6.2038">
        <ele>964.8</ele>
        <time>2012-03-23T14:10:33Z</time>
      </trkpt>
      <trkpt lat="43.67427" lon="6.20375">
        <ele>964.3</ele>
        <time>2012-03-23T14:10:43Z</time>
      </trkpt>
      <trkpt lat="43.67427" lon="6.20374">
        <ele>964.3</ele>
        <time>2012-03-23T14:10:44Z</time>
      </trkpt>
      <trkpt lat="43.6744" lon="6.20359">
        <ele>960.6</ele>
        <time>2012-03-23T14:11:12Z</time>
      </trkpt>
      <trkpt lat="43.67446" lon="6.2035">
        <ele>962.6</ele>
        <time>2012-03-23T14:11:23Z</time>
      </trkpt>
      <trkpt lat="43.67453" lon="6.20343">
        <ele>963.4</ele>
        <time>2012-03-23T14:11:37Z</time>
      </trkpt>
      <trkpt lat="43.6746" lon="6.20336">
        <ele>963.5</ele>
        <time>2012-03-23T14:11:45Z</time>
      </trkpt>
      <trkpt lat="43.6746" lon="6.20335">
        <ele>963.7</ele>
        <time>2012-03-23T14:11:46Z</time>
      </trkpt>
      <trkpt lat="43.67472" lon="6.20321">
        <ele>963.9</ele>
        <time>2012-03-23T14:12:01Z</time>
      </trkpt>
      <trkpt lat="43.67479" lon="6.20314">
        <ele>965.4</ele>
        <time>2012-03-23T14:12:11Z</time>
      </trkpt>
      <trkpt lat="43.67487" lon="6.20308">
        <ele>966.6</ele>
        <time>2012-03-23T14:12:23Z</time>
      </trkpt>
      <trkpt lat="43.67494" lon="6.20302">
        <ele>967</ele>
        <time>2012-03-23T14:12:32Z</time>
      </trkpt>
      <trkpt lat="43.67501" lon="6.20296">
        <ele>967.2</ele>
        <time>2012-03-23T14:12:41Z</time>
      </trkpt>
      <trkpt lat="43.67508" lon="6.2029">
        <ele>968.2</ele>
        <time>2012-03-23T14:12:51Z</time>
      </trkpt>
      <trkpt lat="43.67509" lon="6.20289">
        <ele>968.2</ele>
        <time>2012-03-23T14:12:52Z</time>
      </trkpt>
      <trkpt lat="43.67523" lon="6.20277">
        <ele>968.3</ele>
        <time>2012-03-23T14:13:11Z</time>
      </trkpt>
      <trkpt lat="43.6753" lon="6.20272">
        <ele>969.8</ele>
        <time>2012-03-23T14:13:21Z</time>
      </trkpt>
      <trkpt lat="43.67538" lon="6.2027">
        <ele>970.2</ele>
        <time>2012-03-23T14:13:32Z</time>
      </trkpt>
      <trkpt lat="43.67547" lon="6.20267">
        <ele>970.5</ele>
        <time>2012-03-23T14:13:44Z</time>
      </trkpt>
      <trkpt lat="43.67555" lon="6.20263">
        <ele>970.3</ele>
        <time>2012-03-23T14:13:59Z</time>
      </trkpt>
      <trkpt lat="43.67556" lon="6.20263">
        <ele>970.3</ele>
        <time>2012-03-23T14:14:00Z</time>
      </trkpt>
      <trkpt lat="43.67572" lon="6.20259">
        <ele>971.5</ele>
        <time>2012-03-23T14:14:25Z</time>
      </trkpt>
      <trkpt lat="43.67581" lon="6.20256">
        <ele>973.5</ele>
        <time>2012-03-23T14:14:37Z</time>
      </trkpt>
      <trkpt lat="43.6759" lon="6.20255">
        <ele>973.2</ele>
        <time>2012-03-23T14:14:48Z</time>
      </trkpt>
      <trkpt lat="43.67598" lon="6.20252">
        <ele>973.1</ele>
        <time>2012-03-23T14:15:00Z</time>
      </trkpt>
      <trkpt lat="43.67606" lon="6.20248">
        <ele>972.6</ele>
        <time>2012-03-23T14:17:43Z</time>
      </trkpt>
      <trkpt lat="43.67607" lon="6.20248">
        <ele>972.6</ele>
        <time>2012-03-23T14:17:44Z</time>
      </trkpt>
      <trkpt lat="43.67621" lon="6.20236">
        <ele>970.3</ele>
        <time>2012-03-23T14:18:30Z</time>
      </trkpt>
      <trkpt lat="43.67626" lon="6.20226">
        <ele>968.9</ele>
        <time>2012-03-23T14:18:42Z</time>
      </trkpt>
      <trkpt lat="43.67633" lon="6.20218">
        <ele>967.7</ele>
        <time>2012-03-23T14:18:57Z</time>
      </trkpt>
      <trkpt lat="43.67633" lon="6.20218">
        <ele>967.6</ele>
        <time>2012-03-23T14:18:58Z</time>
      </trkpt>
      <trkpt lat="43.67649" lon="6.2021">
        <ele>967.1</ele>
        <time>2012-03-23T14:19:24Z</time>
      </trkpt>
      <trkpt lat="43.67657" lon="6.20205">
        <ele>966.2</ele>
        <time>2012-03-23T14:19:35Z</time>
      </trkpt>
      <trkpt lat="43.67664" lon="6.20199">
        <ele>968.8</ele>
        <time>2012-03-23T14:19:46Z</time>
      </trkpt>
      <trkpt lat="43.67667" lon="6.20188">
        <ele>969.9</ele>
        <time>2012-03-23T14:19:58Z</time>
      </trkpt>
      <trkpt lat="43.67667" lon="6.20187">
        <ele>969.9</ele>
        <time>2012-03-23T14:19:59Z</time>
      </trkpt>
      <trkpt lat="43.67666" lon="6.20165">
        <ele>969.1</ele>
        <time>2012-03-23T14:20:24Z</time>
      </trkpt>
      <trkpt lat="43.6767" lon="6.20153">
        <ele>967.8</ele>
        <time>2012-03-23T14:20:41Z</time>
      </trkpt>
      <trkpt lat="43.67671" lon="6.20141">
        <ele>966.7</ele>
        <time>2012-03-23T14:21:16Z</time>
      </trkpt>
      <trkpt lat="43.67671" lon="6.2014">
        <ele>966.4</ele>
        <time>2012-03-23T14:21:17Z</time>
      </trkpt>
      <trkpt lat="43.67676" lon="6.20119">
        <ele>964.7</ele>
        <time>2012-03-23T14:21:44Z</time>
      </trkpt>
      <trkpt lat="43.67678" lon="6.20107">
        <ele>965.3</ele>
        <time>2012-03-23T14:21:55Z</time>
      </trkpt>
      <trkpt lat="43.6768" lon="6.20096">
        <ele>966.8</ele>
        <time>2012-03-23T14:22:05Z</time>
      </trkpt>
      <trkpt lat="43.67681" lon="6.20084">
        <ele>967.2</ele>
        <time>2012-03-23T14:22:15Z</time>
      </trkpt>
      <trkpt lat="43.67684" lon="6.20073">
        <ele>967.6</ele>
        <time>2012-03-23T14:22:24Z</time>
      </trkpt>
      <trkpt lat="43.67684" lon="6.20071">
        <ele>967.7</ele>
        <time>2012-03-23T14:22:25Z</time>
      </trkpt>
      <trkpt lat="43.67688" lon="6.20061">
        <ele>967.1</ele>
        <time>2012-03-23T14:23:33Z</time>
      </trkpt>
      <trkpt lat="43.67683" lon="6.20038">
        <ele>972.4</ele>
        <time>2012-03-23T14:24:17Z</time>
      </trkpt>
      <trkpt lat="43.67682" lon="6.20026">
        <ele>976.8</ele>
        <time>2012-03-23T14:24:37Z</time>
      </trkpt>
      <trkpt lat="43.67682" lon="6.20026">
        <ele>976.9</ele>
        <time>2012-03-23T14:24:38Z</time>
      </trkpt>
      <trkpt lat="43.67682" lon="6.20003">
        <ele>985.2</ele>
        <time>2012-03-23T14:25:38Z</time>
      </trkpt>
      <trkpt lat="43.67682" lon="6.20002">
        <ele>985.5</ele>
        <time>2012-03-23T14:25:39Z</time>
      </trkpt>
      <trkpt lat="43.67682" lon="6.19978">
        <ele>993.9</ele>
        <time>2012-03-23T14:26:43Z</time>
      </trkpt>
      <trkpt lat="43.67682" lon="6.19978">
        <ele>993.5</ele>
        <time>2012-03-23T14:26:44Z</time>
      </trkpt>
      <trkpt lat="43.67678" lon="6.19957">
        <ele>996.5</ele>
        <time>2012-03-23T14:36:35Z</time>
      </trkpt>
      <trkpt lat="43.67678" lon="6.19957">
        <ele>996.6</ele>
        <time>2012-03-23T14:36:36Z</time>
      </trkpt>
      <trkpt lat="43.67674" lon="6.19939">
        <ele>992.9</ele>
        <time>2012-03-23T14:37:52Z</time>
      </trkpt>
      <trkpt lat="43.67675" lon="6.19938">
        <ele>992.6</ele>
        <time>2012-03-23T14:37:53Z</time>
      </trkpt>
      <trkpt lat="43.6768" lon="6.19929">
        <ele>988</ele>
        <time>2012-03-23T14:39:00Z</time>
      </trkpt>
      <trkpt lat="43.67679" lon="6.19917">
        <ele>982.6</ele>
        <time>2012-03-23T14:40:33Z</time>
      </trkpt>
      <trkpt lat="43.67682" lon="6.19896">
        <ele>975.5</ele>
        <time>2012-03-23T14:41:43Z</time>
      </trkpt>
      <trkpt lat="43.67682" lon="6.19895">
        <ele>975.6</ele>
        <time>2012-03-23T14:41:44Z</time>
      </trkpt>
      <trkpt lat="43.67674" lon="6.19874">
        <ele>961.4</ele>
        <time>2012-03-23T14:44:02Z</time>
      </trkpt>
      <trkpt lat="43.67673" lon="6.19874">
        <ele>961.1</ele>
        <time>2012-03-23T14:44:03Z</time>
      </trkpt>
      <trkpt lat="43.67674" lon="6.19862">
        <ele>956</ele>
        <time>2012-03-23T14:45:04Z</time>
      </trkpt>
      <trkpt lat="43.67691" lon="6.19858">
        <ele>958.9</ele>
        <time>2012-03-23T14:46:05Z</time>
      </trkpt>
      <trkpt lat="43.67691" lon="6.19858">
        <ele>958.5</ele>
        <time>2012-03-23T14:46:06Z</time>
      </trkpt>
      <trkpt lat="43.67708" lon="6.19861">
        <ele>962.4</ele>
        <time>2012-03-23T14:47:17Z</time>
      </trkpt>
      <trkpt lat="43.67709" lon="6.19861">
        <ele>962.3</ele>
        <time>2012-03-23T14:47:18Z</time>
      </trkpt>
      <trkpt lat="43.67712" lon="6.19882">
        <ele>972.5</ele>
        <time>2012-03-23T14:49:03Z</time>
      </trkpt>
      <trkpt lat="43.67712" lon="6.19882">
        <ele>972.7</ele>
        <time>2012-03-23T14:49:04Z</time>
      </trkpt>
      <trkpt lat="43.67714" lon="6.19906">
        <ele>980.8</ele>
        <time>2012-03-23T14:50:38Z</time>
      </trkpt>
      <trkpt lat="43.67714" lon="6.19906">
        <ele>980.5</ele>
        <time>2012-03-23T14:50:39Z</time>
      </trkpt>
      <trkpt lat="43.67721" lon="6.19913">
        <ele>985.8</ele>
        <time>2012-03-23T14:52:02Z</time>
      </trkpt>
      <trkpt lat="43.67735" lon="6.199">
        <ele>981.6</ele>
        <time>2012-03-23T14:52:38Z</time>
      </trkpt>
      <trkpt lat="43.67743" lon="6.19897">
        <ele>977.8</ele>
        <time>2012-03-23T14:53:01Z</time>
      </trkpt>
      <trkpt lat="43.67744" lon="6.19908">
        <ele>976.9</ele>
        <time>2012-03-23T14:53:11Z</time>
      </trkpt>
      <trkpt lat="43.67744" lon="6.19909">
        <ele>976.6</ele>
        <time>2012-03-23T14:53:12Z</time>
      </trkpt>
      <trkpt lat="43.67746" lon="6.19931">
        <ele>970</ele>
        <time>2012-03-23T14:54:28Z</time>
      </trkpt>
      <trkpt lat="43.67747" lon="6.19931">
        <ele>969.9</ele>
        <time>2012-03-23T14:54:29Z</time>
      </trkpt>
      <trkpt lat="43.67749" lon="6.19955">
        <ele>962.8</ele>
        <time>2012-03-23T14:55:48Z</time>
      </trkpt>
      <trkpt lat="43.67749" lon="6.19955">
        <ele>962.9</ele>
        <time>2012-03-23T14:55:49Z</time>
      </trkpt>
      <trkpt lat="43.67745" lon="6.19978">
        <ele>963.4</ele>
        <time>2012-03-23T14:56:47Z</time>
      </trkpt>
      <trkpt lat="43.6774" lon="6.19987">
        <ele>964.2</ele>
        <time>2012-03-23T14:56:58Z</time>
      </trkpt>
      <trkpt lat="43.67739" lon="6.19988">
        <ele>964.1</ele>
        <time>2012-03-23T14:56:59Z</time>
      </trkpt>
      <trkpt lat="43.67729" lon="6.20006">
        <ele>964.2</ele>
        <time>2012-03-23T14:57:17Z</time>
      </trkpt>
      <trkpt lat="43.67725" lon="6.20016">
        <ele>964.3</ele>
        <time>2012-03-23T14:57:28Z</time>
      </trkpt>
      <trkpt lat="43.67719" lon="6.20025">
        <ele>964.2</ele>
        <time>2012-03-23T14:57:38Z</time>
      </trkpt>
      <trkpt lat="43.67712" lon="6.20033">
        <ele>963.1</ele>
        <time>2012-03-23T14:57:47Z</time>
      </trkpt>
      <trkpt lat="43.67707" lon="6.20042">
        <ele>961.9</ele>
        <time>2012-03-23T14:57:57Z</time>
      </trkpt>
      <trkpt lat="43.677" lon="6.2005">
        <ele>963.8</ele>
        <time>2012-03-23T14:58:08Z</time>
      </trkpt>
      <trkpt lat="43.67699" lon="6.20051">
        <ele>964.4</ele>
        <time>2012-03-23T14:58:09Z</time>
      </trkpt>
      <trkpt lat="43.67687" lon="6.20065">
        <ele>964.4</ele>
        <time>2012-03-23T14:58:46Z</time>
      </trkpt>
      <trkpt lat="43.67682" lon="6.20075">
        <ele>963.6</ele>
        <time>2012-03-23T15:02:34Z</time>
      </trkpt>
      <trkpt lat="43.67682" lon="6.20075">
        <ele>963.7</ele>
        <time>2012-03-23T15:02:35Z</time>
      </trkpt>
      <trkpt lat="43.67681" lon="6.20098">
        <ele>961.2</ele>
        <time>2012-03-23T15:03:10Z</time>
      </trkpt>
      <trkpt lat="43.67677" lon="6.2011">
        <ele>960.8</ele>
        <time>2012-03-23T15:03:21Z</time>
      </trkpt>
      <trkpt lat="43.67675" lon="6.20121">
        <ele>962.1</ele>
        <time>2012-03-23T15:03:33Z</time>
      </trkpt>
      <trkpt lat="43.67672" lon="6.20133">
        <ele>961.9</ele>
        <time>2012-03-23T15:04:00Z</time>
      </trkpt>
      <trkpt lat="43.67672" lon="6.20133">
        <ele>962.1</ele>
        <time>2012-03-23T15:04:01Z</time>
      </trkpt>
      <trkpt lat="43.67668" lon="6.20156">
        <ele>964.4</ele>
        <time>2012-03-23T15:04:45Z</time>
      </trkpt>
      <trkpt lat="43.67669" lon="6.20167">
        <ele>965.7</ele>
        <time>2012-03-23T15:04:56Z</time>
      </trkpt>
      <trkpt lat="43.6767" lon="6.20179">
        <ele>966.4</ele>
        <time>2012-03-23T15:05:06Z</time>
      </trkpt>
      <trkpt lat="43.6767" lon="6.20181">
        <ele>966.1</ele>
        <time>2012-03-23T15:05:07Z</time>
      </trkpt>
      <trkpt lat="43.67661" lon="6.20198">
        <ele>963.6</ele>
        <time>2012-03-23T15:05:25Z</time>
      </trkpt>
      <trkpt lat="43.67653" lon="6.20204">
        <ele>962.9</ele>
        <time>2012-03-23T15:05:36Z</time>
      </trkpt>
      <trkpt lat="43.67646" lon="6.20209">
        <ele>962.2</ele>
        <time>2012-03-23T15:05:50Z</time>
      </trkpt>
      <trkpt lat="43.67637" lon="6.20213">
        <ele>963</ele>
        <time>2012-03-23T15:06:02Z</time>
      </trkpt>
      <trkpt lat="43.6763" lon="6.2022">
        <ele>963</ele>
        <time>2012-03-23T15:06:13Z</time>
      </trkpt>
      <trkpt lat="43.6763" lon="6.20221">
        <ele>962.9</ele>
        <time>2012-03-23T15:06:14Z</time>
      </trkpt>
      <trkpt lat="43.67619" lon="6.20237">
        <ele>965.5</ele>
        <time>2012-03-23T15:06:32Z</time>
      </trkpt>
      <trkpt lat="43.67611" lon="6.20244">
        <ele>966.8</ele>
        <time>2012-03-23T15:06:43Z</time>
      </trkpt>
      <trkpt lat="43.67603" lon="6.20249">
        <ele>968.1</ele>
        <time>2012-03-23T15:07:05Z</time>
      </trkpt>
      <trkpt lat="43.67596" lon="6.20254">
        <ele>967.8</ele>
        <time>2012-03-23T15:07:24Z</time>
      </trkpt>
      <trkpt lat="43.67595" lon="6.20254">
        <ele>967.9</ele>
        <time>2012-03-23T15:07:25Z</time>
      </trkpt>
      <trkpt lat="43.67587" lon="6.20255">
        <ele>967.8</ele>
        <time>2012-03-23T15:10:05Z</time>
      </trkpt>
      <trkpt lat="43.6757" lon="6.20258">
        <ele>966.4</ele>
        <time>2012-03-23T15:10:31Z</time>
      </trkpt>
      <trkpt lat="43.67562" lon="6.20261">
        <ele>966</ele>
        <time>2012-03-23T15:10:43Z</time>
      </trkpt>
      <trkpt lat="43.67554" lon="6.20265">
        <ele>965.9</ele>
        <time>2012-03-23T15:10:54Z</time>
      </trkpt>
      <trkpt lat="43.67546" lon="6.20269">
        <ele>964.3</ele>
        <time>2012-03-23T15:11:06Z</time>
      </trkpt>
      <trkpt lat="43.67545" lon="6.2027">
        <ele>964.5</ele>
        <time>2012-03-23T15:11:06Z</time>
      </trkpt>
      <trkpt lat="43.6753" lon="6.20276">
        <ele>964.4</ele>
        <time>2012-03-23T15:11:28Z</time>
      </trkpt>
      <trkpt lat="43.67522" lon="6.20281">
        <ele>962.6</ele>
        <time>2012-03-23T15:11:38Z</time>
      </trkpt>
      <trkpt lat="43.67515" lon="6.20287">
        <ele>962.3</ele>
        <time>2012-03-23T15:11:51Z</time>
      </trkpt>
      <trkpt lat="43.67508" lon="6.20294">
        <ele>961.6</ele>
        <time>2012-03-23T15:12:02Z</time>
      </trkpt>
      <trkpt lat="43.67501" lon="6.203">
        <ele>961.1</ele>
        <time>2012-03-23T15:12:15Z</time>
      </trkpt>
      <trkpt lat="43.675" lon="6.20301">
        <ele>960.9</ele>
        <time>2012-03-23T15:12:16Z</time>
      </trkpt>
      <trkpt lat="43.67486" lon="6.20314">
        <ele>960.2</ele>
        <time>2012-03-23T15:12:35Z</time>
      </trkpt>
      <trkpt lat="43.67478" lon="6.20318">
        <ele>959.5</ele>
        <time>2012-03-23T15:12:44Z</time>
      </trkpt>
      <trkpt lat="43.6747" lon="6.20324">
        <ele>958.9</ele>
        <time>2012-03-23T15:12:53Z</time>
      </trkpt>
      <trkpt lat="43.67462" lon="6.2033">
        <ele>958.2</ele>
        <time>2012-03-23T15:13:01Z</time>
      </trkpt>
      <trkpt lat="43.67455" lon="6.20336">
        <ele>959</ele>
        <time>2012-03-23T15:13:11Z</time>
      </trkpt>
      <trkpt lat="43.6745" lon="6.20346">
        <ele>958.5</ele>
        <time>2012-03-23T15:13:20Z</time>
      </trkpt>
      <trkpt lat="43.67449" lon="6.20347">
        <ele>958.7</ele>
        <time>2012-03-23T15:13:21Z</time>
      </trkpt>
      <trkpt lat="43.67438" lon="6.20362">
        <ele>959.2</ele>
        <time>2012-03-23T15:13:38Z</time>
      </trkpt>
      <trkpt lat="43.67431" lon="6.20369">
        <ele>958.3</ele>
        <time>2012-03-23T15:13:46Z</time>
      </trkpt>
      <trkpt lat="43.67424" lon="6.20374">
        <ele>959.7</ele>
        <time>2012-03-23T15:13:55Z</time>
      </trkpt>
      <trkpt lat="43.67417" lon="6.20381">
        <ele>960.2</ele>
        <time>2012-03-23T15:14:04Z</time>
      </trkpt>
      <trkpt lat="43.67411" lon="6.2039">
        <ele>958.9</ele>
        <time>2012-03-23T15:14:12Z</time>
      </trkpt>
      <trkpt lat="43.67405" lon="6.204">
        <ele>957.5</ele>
        <time>2012-03-23T15:14:21Z</time>
      </trkpt>
      <trkpt lat="43.67405" lon="6.204">
        <ele>957.7</ele>
        <time>2012-03-23T15:14:22Z</time>
      </trkpt>
      <trkpt lat="43.67393" lon="6.20417">
        <ele>954.7</ele>
        <time>2012-03-23T15:14:41Z</time>
      </trkpt>
      <trkpt lat="43.67387" lon="6.20425">
        <ele>953.9</ele>
        <time>2012-03-23T15:14:52Z</time>
      </trkpt>
      <trkpt lat="43.67382" lon="6.20434">
        <ele>953.6</ele>
        <time>2012-03-23T15:15:00Z</time>
      </trkpt>
      <trkpt lat="43.67379" lon="6.20444">
        <ele>953.3</ele>
        <time>2012-03-23T15:15:08Z</time>
      </trkpt>
      <trkpt lat="43.67374" lon="6.20454">
        <ele>953.2</ele>
        <time>2012-03-23T15:15:36Z</time>
      </trkpt>
      <trkpt lat="43.67374" lon="6.20455">
        <ele>953.4</ele>
        <time>2012-03-23T15:15:37Z</time>
      </trkpt>
      <trkpt lat="43.67368" lon="6.20477">
        <ele>951.7</ele>
        <time>2012-03-23T15:16:00Z</time>
      </trkpt>
      <trkpt lat="43.67365" lon="6.20488">
        <ele>951.2</ele>
        <time>2012-03-23T15:16:11Z</time>
      </trkpt>
      <trkpt lat="43.6736" lon="6.20498">
        <ele>950.1</ele>
        <time>2012-03-23T15:16:22Z</time>
      </trkpt>
      <trkpt lat="43.67354" lon="6.20507">
        <ele>948.7</ele>
        <time>2012-03-23T15:16:41Z</time>
      </trkpt>
      <trkpt lat="43.67353" lon="6.20507">
        <ele>948.3</ele>
        <time>2012-03-23T15:16:42Z</time>
      </trkpt>
      <trkpt lat="43.67346" lon="6.20528">
        <ele>946.3</ele>
        <time>2012-03-23T15:17:03Z</time>
      </trkpt>
      <trkpt lat="43.67341" lon="6.20537">
        <ele>945.8</ele>
        <time>2012-03-23T15:17:13Z</time>
      </trkpt>
      <trkpt lat="43.67338" lon="6.20549">
        <ele>946.2</ele>
        <time>2012-03-23T15:17:26Z</time>
      </trkpt>
      <trkpt lat="43.67332" lon="6.20557">
        <ele>945.7</ele>
        <time>2012-03-23T15:17:37Z</time>
      </trkpt>
      <trkpt lat="43.67326" lon="6.20566">
        <ele>945.1</ele>
        <time>2012-03-23T15:17:47Z</time>
      </trkpt>
      <trkpt lat="43.67326" lon="6.20567">
        <ele>945.5</ele>
        <time>2012-03-23T15:17:48Z</time>
      </trkpt>
      <trkpt lat="43.67309" lon="6.20572">
        <ele>942.4</ele>
        <time>2012-03-23T15:18:14Z</time>
      </trkpt>
      <trkpt lat="43.67302" lon="6.20574">
        <ele>942.9</ele>
        <time>2012-03-23T15:18:22Z</time>
      </trkpt>
      <trkpt lat="43.67293" lon="6.20576">
        <ele>942.9</ele>
        <time>2012-03-23T15:18:31Z</time>
      </trkpt>
      <trkpt lat="43.67284" lon="6.20579">
        <ele>945.5</ele>
        <time>2012-03-23T15:18:41Z</time>
      </trkpt>
      <trkpt lat="43.67277" lon="6.20583">
        <ele>946</ele>
        <time>2012-03-23T15:18:50Z</time>
      </trkpt>
      <trkpt lat="43.67276" lon="6.20583">
        <ele>945.9</ele>
        <time>2012-03-23T15:18:51Z</time>
      </trkpt>
      <trkpt lat="43.67261" lon="6.20592">
        <ele>949.5</ele>
        <time>2012-03-23T15:19:17Z</time>
      </trkpt>
      <trkpt lat="43.67253" lon="6.20597">
        <ele>951.7</ele>
        <time>2012-03-23T15:19:31Z</time>
      </trkpt>
      <trkpt lat="43.67245" lon="6.20601">
        <ele>954.3</ele>
        <time>2012-03-23T15:19:49Z</time>
      </trkpt>
      <trkpt lat="43.67236" lon="6.20601">
        <ele>953.8</ele>
        <time>2012-03-23T15:20:01Z</time>
      </trkpt>
      <trkpt lat="43.67235" lon="6.20601">
        <ele>953.7</ele>
        <time>2012-03-23T15:20:02Z</time>
      </trkpt>
      <trkpt lat="43.67221" lon="6.20614">
        <ele>956</ele>
        <time>2012-03-23T15:20:26Z</time>
      </trkpt>
      <trkpt lat="43.67214" lon="6.2062">
        <ele>955.8</ele>
        <time>2012-03-23T15:20:42Z</time>
      </trkpt>
      <trkpt lat="43.67208" lon="6.20629">
        <ele>956</ele>
        <time>2012-03-23T15:20:54Z</time>
      </trkpt>
      <trkpt lat="43.67204" lon="6.20639">
        <ele>955.1</ele>
        <time>2012-03-23T15:21:06Z</time>
      </trkpt>
      <trkpt lat="43.67204" lon="6.2064">
        <ele>954.6</ele>
        <time>2012-03-23T15:21:07Z</time>
      </trkpt>
      <trkpt lat="43.6719" lon="6.20651">
        <ele>951.3</ele>
        <time>2012-03-23T15:21:34Z</time>
      </trkpt>
      <trkpt lat="43.67182" lon="6.20657">
        <ele>950.4</ele>
        <time>2012-03-23T15:21:46Z</time>
      </trkpt>
      <trkpt lat="43.67177" lon="6.20667">
        <ele>948.4</ele>
        <time>2012-03-23T15:22:00Z</time>
      </trkpt>
      <trkpt lat="43.67169" lon="6.20671">
        <ele>946.2</ele>
        <time>2012-03-23T15:22:11Z</time>
      </trkpt>
      <trkpt lat="43.67168" lon="6.20672">
        <ele>945.8</ele>
        <time>2012-03-23T15:22:12Z</time>
      </trkpt>
      <trkpt lat="43.67153" lon="6.20681">
        <ele>942.4</ele>
        <time>2012-03-23T15:22:35Z</time>
      </trkpt>
      <trkpt lat="43.67145" lon="6.20687">
        <ele>940.4</ele>
        <time>2012-03-23T15:22:48Z</time>
      </trkpt>
      <trkpt lat="43.67137" lon="6.2069">
        <ele>939.8</ele>
        <time>2012-03-23T15:22:57Z</time>
      </trkpt>
      <trkpt lat="43.67129" lon="6.20694">
        <ele>938.1</ele>
        <time>2012-03-23T15:23:06Z</time>
      </trkpt>
      <trkpt lat="43.67122" lon="6.20701">
        <ele>937.4</ele>
        <time>2012-03-23T15:23:20Z</time>
      </trkpt>
      <trkpt lat="43.67122" lon="6.20702">
        <ele>937.5</ele>
        <time>2012-03-23T15:23:21Z</time>
      </trkpt>
      <trkpt lat="43.67108" lon="6.20714">
        <ele>934.7</ele>
        <time>2012-03-23T15:23:52Z</time>
      </trkpt>
      <trkpt lat="43.67101" lon="6.20722">
        <ele>933.2</ele>
        <time>2012-03-23T15:24:04Z</time>
      </trkpt>
      <trkpt lat="43.67095" lon="6.2073">
        <ele>932.5</ele>
        <time>2012-03-23T15:24:14Z</time>
      </trkpt>
      <trkpt lat="43.67088" lon="6.20738">
        <ele>931.3</ele>
        <time>2012-03-23T15:24:23Z</time>
      </trkpt>
      <trkpt lat="43.67088" lon="6.20739">
        <ele>931.4</ele>
        <time>2012-03-23T15:24:24Z</time>
      </trkpt>
      <trkpt lat="43.67074" lon="6.20753">
        <ele>932</ele>
        <time>2012-03-23T15:24:42Z</time>
      </trkpt>
      <trkpt lat="43.6707" lon="6.20762">
        <ele>932</ele>
        <time>2012-03-23T15:24:51Z</time>
      </trkpt>
      <trkpt lat="43.67063" lon="6.20771">
        <ele>932.6</ele>
        <time>2012-03-23T15:25:01Z</time>
      </trkpt>
      <trkpt lat="43.67057" lon="6.20779">
        <ele>933</ele>
        <time>2012-03-23T15:25:12Z</time>
      </trkpt>
      <trkpt lat="43.67052" lon="6.20788">
        <ele>932.9</ele>
        <time>2012-03-23T15:25:21Z</time>
      </trkpt>
      <trkpt lat="43.67047" lon="6.20797">
        <ele>932.2</ele>
        <time>2012-03-23T15:25:30Z</time>
      </trkpt>
      <trkpt lat="43.67046" lon="6.20797">
        <ele>932</ele>
        <time>2012-03-23T15:25:31Z</time>
      </trkpt>
      <trkpt lat="43.67033" lon="6.20811">
        <ele>928.8</ele>
        <time>2012-03-23T15:25:50Z</time>
      </trkpt>
      <trkpt lat="43.67025" lon="6.20818">
        <ele>928.2</ele>
        <time>2012-03-23T15:25:59Z</time>
      </trkpt>
      <trkpt lat="43.67018" lon="6.20824">
        <ele>927.6</ele>
        <time>2012-03-23T15:26:08Z</time>
      </trkpt>
      <trkpt lat="43.67011" lon="6.20831">
        <ele>926.4</ele>
        <time>2012-03-23T15:26:18Z</time>
      </trkpt>
      <trkpt lat="43.67004" lon="6.20838">
        <ele>924.5</ele>
        <time>2012-03-23T15:26:27Z</time>
      </trkpt>
      <trkpt lat="43.66997" lon="6.20844">
        <ele>922.3</ele>
        <time>2012-03-23T15:26:35Z</time>
      </trkpt>
      <trkpt lat="43.66996" lon="6.20844">
        <ele>922.5</ele>
        <time>2012-03-23T15:26:36Z</time>
      </trkpt>
      <trkpt lat="43.66983" lon="6.20856">
        <ele>922</ele>
        <time>2012-03-23T15:26:50Z</time>
      </trkpt>
      <trkpt lat="43.66976" lon="6.20863">
        <ele>922.2</ele>
        <time>2012-03-23T15:26:59Z</time>
      </trkpt>
      <trkpt lat="43.66971" lon="6.20872">
        <ele>921.1</ele>
        <time>2012-03-23T15:27:09Z</time>
      </trkpt>
      <trkpt lat="43.66965" lon="6.20881">
        <ele>919</ele>
        <time>2012-03-23T15:27:19Z</time>
      </trkpt>
      <trkpt lat="43.66961" lon="6.20892">
        <ele>916.8</ele>
        <time>2012-03-23T15:27:30Z</time>
      </trkpt>
      <trkpt lat="43.66957" lon="6.20902">
        <ele>915</ele>
        <time>2012-03-23T15:27:41Z</time>
      </trkpt>
      <trkpt lat="43.66956" lon="6.20904">
        <ele>914.6</ele>
        <time>2012-03-23T15:27:42Z</time>
      </trkpt>
      <trkpt lat="43.66949" lon="6.20924">
        <ele>911.6</ele>
        <time>2012-03-23T15:27:59Z</time>
      </trkpt>
      <trkpt lat="43.66944" lon="6.20933">
        <ele>910.8</ele>
        <time>2012-03-23T15:28:07Z</time>
      </trkpt>
      <trkpt lat="43.66941" lon="6.20944">
        <ele>909.4</ele>
        <time>2012-03-23T15:28:17Z</time>
      </trkpt>
      <trkpt lat="43.66938" lon="6.20954">
        <ele>908.6</ele>
        <time>2012-03-23T15:28:26Z</time>
      </trkpt>
      <trkpt lat="43.66936" lon="6.20965">
        <ele>909</ele>
        <time>2012-03-23T15:28:33Z</time>
      </trkpt>
      <trkpt lat="43.66931" lon="6.20975">
        <ele>906.3</ele>
        <time>2012-03-23T15:28:41Z</time>
      </trkpt>
      <trkpt lat="43.66926" lon="6.20984">
        <ele>906</ele>
        <time>2012-03-23T15:28:49Z</time>
      </trkpt>
      <trkpt lat="43.66925" lon="6.20985">
        <ele>906</ele>
        <time>2012-03-23T15:28:50Z</time>
      </trkpt>
      <trkpt lat="43.66917" lon="6.21003">
        <ele>904.9</ele>
        <time>2012-03-23T15:29:05Z</time>
      </trkpt>
      <trkpt lat="43.66913" lon="6.21014">
        <ele>904.9</ele>
        <time>2012-03-23T15:29:13Z</time>
      </trkpt>
      <trkpt lat="43.66909" lon="6.21024">
        <ele>904.1</ele>
        <time>2012-03-23T15:29:21Z</time>
      </trkpt>
      <trkpt lat="43.66904" lon="6.21032">
        <ele>903</ele>
        <time>2012-03-23T15:29:28Z</time>
      </trkpt>
      <trkpt lat="43.66897" lon="6.21041">
        <ele>902.9</ele>
        <time>2012-03-23T15:29:36Z</time>
      </trkpt>
      <trkpt lat="43.6689" lon="6.21047">
        <ele>902.8</ele>
        <time>2012-03-23T15:29:46Z</time>
      </trkpt>
      <trkpt lat="43.66882" lon="6.21053">
        <ele>902</ele>
        <time>2012-03-23T15:29:55Z</time>
      </trkpt>
      <trkpt lat="43.66882" lon="6.21054">
        <ele>902</ele>
        <time>2012-03-23T15:29:56Z</time>
      </trkpt>
      <trkpt lat="43.66869" lon="6.21067">
        <ele>900.3</ele>
        <time>2012-03-23T15:30:13Z</time>
      </trkpt>
      <trkpt lat="43.66861" lon="6.21072">
        <ele>897.5</ele>
        <time>2012-03-23T15:30:29Z</time>
      </trkpt>
      <trkpt lat="43.66853" lon="6.21076">
        <ele>895.3</ele>
        <time>2012-03-23T15:30:43Z</time>
      </trkpt>
      <trkpt lat="43.66845" lon="6.2108">
        <ele>893.2</ele>
        <time>2012-03-23T15:30:54Z</time>
      </trkpt>
      <trkpt lat="43.66837" lon="6.21084">
        <ele>892.8</ele>
        <time>2012-03-23T15:31:03Z</time>
      </trkpt>
      <trkpt lat="43.66836" lon="6.21085">
        <ele>893.1</ele>
        <time>2012-03-23T15:31:04Z</time>
      </trkpt>
      <trkpt lat="43.66824" lon="6.211">
        <ele>889.4</ele>
        <time>2012-03-23T15:31:24Z</time>
      </trkpt>
      <trkpt lat="43.66816" lon="6.21107">
        <ele>888.7</ele>
        <time>2012-03-23T15:31:32Z</time>
      </trkpt>
      <trkpt lat="43.66809" lon="6.21115">
        <ele>887.7</ele>
        <time>2012-03-23T15:31:40Z</time>
      </trkpt>
      <trkpt lat="43.66802" lon="6.2112">
        <ele>888.1</ele>
        <time>2012-03-23T15:31:50Z</time>
      </trkpt>
      <trkpt lat="43.66795" lon="6.21127">
        <ele>888.2</ele>
        <time>2012-03-23T15:32:01Z</time>
      </trkpt>
      <trkpt lat="43.66789" lon="6.21135">
        <ele>886.3</ele>
        <time>2012-03-23T15:32:10Z</time>
      </trkpt>
      <trkpt lat="43.66788" lon="6.21136">
        <ele>886.4</ele>
        <time>2012-03-23T15:32:11Z</time>
      </trkpt>
      <trkpt lat="43.66777" lon="6.21152">
        <ele>883.1</ele>
        <time>2012-03-23T15:32:32Z</time>
      </trkpt>
      <trkpt lat="43.66771" lon="6.2116">
        <ele>881.7</ele>
        <time>2012-03-23T15:32:42Z</time>
      </trkpt>
      <trkpt lat="43.66764" lon="6.21167">
        <ele>881.2</ele>
        <time>2012-03-23T15:32:51Z</time>
      </trkpt>
      <trkpt lat="43.66757" lon="6.21176">
        <ele>878.5</ele>
        <time>2012-03-23T15:33:01Z</time>
      </trkpt>
      <trkpt lat="43.66751" lon="6.21183">
        <ele>877.3</ele>
        <time>2012-03-23T15:33:11Z</time>
      </trkpt>
      <trkpt lat="43.6675" lon="6.21184">
        <ele>877.3</ele>
        <time>2012-03-23T15:33:12Z</time>
      </trkpt>
      <trkpt lat="43.66738" lon="6.21198">
        <ele>874.6</ele>
        <time>2012-03-23T15:33:32Z</time>
      </trkpt>
      <trkpt lat="43.66732" lon="6.21206">
        <ele>872</ele>
        <time>2012-03-23T15:33:42Z</time>
      </trkpt>
      <trkpt lat="43.66727" lon="6.21216">
        <ele>870.2</ele>
        <time>2012-03-23T15:33:54Z</time>
      </trkpt>
      <trkpt lat="43.6672" lon="6.21224">
        <ele>868.9</ele>
        <time>2012-03-23T15:34:05Z</time>
      </trkpt>
      <trkpt lat="43.66714" lon="6.21232">
        <ele>866.5</ele>
        <time>2012-03-23T15:34:15Z</time>
      </trkpt>
      <trkpt lat="43.66714" lon="6.21232">
        <ele>866</ele>
        <time>2012-03-23T15:34:16Z</time>
      </trkpt>
      <trkpt lat="43.66702" lon="6.21249">
        <ele>863.9</ele>
        <time>2012-03-23T15:34:35Z</time>
      </trkpt>
      <trkpt lat="43.66696" lon="6.21258">
        <ele>861.8</ele>
        <time>2012-03-23T15:34:46Z</time>
      </trkpt>
      <trkpt lat="43.66688" lon="6.21262">
        <ele>860.1</ele>
        <time>2012-03-23T15:34:56Z</time>
      </trkpt>
      <trkpt lat="43.66682" lon="6.2127">
        <ele>858.6</ele>
        <time>2012-03-23T15:35:05Z</time>
      </trkpt>
      <trkpt lat="43.66676" lon="6.21278">
        <ele>857.9</ele>
        <time>2012-03-23T15:35:15Z</time>
      </trkpt>
      <trkpt lat="43.6667" lon="6.21287">
        <ele>856.1</ele>
        <time>2012-03-23T15:35:26Z</time>
      </trkpt>
      <trkpt lat="43.66669" lon="6.21287">
        <ele>855.9</ele>
        <time>2012-03-23T15:35:27Z</time>
      </trkpt>
      <trkpt lat="43.6666" lon="6.2129">
        <ele>855.6</ele>
        <time>2012-03-23T15:37:47Z</time>
      </trkpt>
      <trkpt lat="43.66648" lon="6.21306">
        <ele>854.3</ele>
        <time>2012-03-23T15:38:07Z</time>
      </trkpt>
      <trkpt lat="43.66641" lon="6.21312">
        <ele>853.7</ele>
        <time>2012-03-23T15:38:15Z</time>
      </trkpt>
      <trkpt lat="43.66634" lon="6.21317">
        <ele>853.5</ele>
        <time>2012-03-23T15:38:23Z</time>
      </trkpt>
      <trkpt lat="43.66625" lon="6.2132">
        <ele>853.2</ele>
        <time>2012-03-23T15:38:32Z</time>
      </trkpt>
      <trkpt lat="43.66618" lon="6.21324">
        <ele>851.8</ele>
        <time>2012-03-23T15:38:41Z</time>
      </trkpt>
      <trkpt lat="43.66609" lon="6.21328">
        <ele>850.9</ele>
        <time>2012-03-23T15:38:50Z</time>
      </trkpt>
      <trkpt lat="43.66608" lon="6.21328">
        <ele>851</ele>
        <time>2012-03-23T15:38:51Z</time>
      </trkpt>
      <trkpt lat="43.66595" lon="6.21341">
        <ele>849.4</ele>
        <time>2012-03-23T15:39:06Z</time>
      </trkpt>
      <trkpt lat="43.6659" lon="6.21349">
        <ele>849.8</ele>
        <time>2012-03-23T15:39:14Z</time>
      </trkpt>
      <trkpt lat="43.66584" lon="6.21358">
        <ele>848.8</ele>
        <time>2012-03-23T15:39:22Z</time>
      </trkpt>
      <trkpt lat="43.66579" lon="6.21367">
        <ele>848.8</ele>
        <time>2012-03-23T15:39:29Z</time>
      </trkpt>
      <trkpt lat="43.66576" lon="6.21378">
        <ele>848.6</ele>
        <time>2012-03-23T15:39:37Z</time>
      </trkpt>
      <trkpt lat="43.66572" lon="6.21388">
        <ele>849.1</ele>
        <time>2012-03-23T15:39:46Z</time>
      </trkpt>
      <trkpt lat="43.66566" lon="6.21395">
        <ele>849.7</ele>
        <time>2012-03-23T15:39:56Z</time>
      </trkpt>
      <trkpt lat="43.66565" lon="6.21396">
        <ele>850.1</ele>
        <time>2012-03-23T15:39:57Z</time>
      </trkpt>
      <trkpt lat="43.66552" lon="6.21411">
        <ele>849.3</ele>
        <time>2012-03-23T15:40:13Z</time>
      </trkpt>
      <trkpt lat="43.66546" lon="6.21418">
        <ele>847.9</ele>
        <time>2012-03-23T15:40:22Z</time>
      </trkpt>
      <trkpt lat="43.66537" lon="6.2142">
        <ele>847.5</ele>
        <time>2012-03-23T15:40:32Z</time>
      </trkpt>
      <trkpt lat="43.66529" lon="6.21423">
        <ele>846.9</ele>
        <time>2012-03-23T15:40:42Z</time>
      </trkpt>
      <trkpt lat="43.66521" lon="6.21424">
        <ele>846.4</ele>
        <time>2012-03-23T15:40:51Z</time>
      </trkpt>
      <trkpt lat="43.66513" lon="6.21429">
        <ele>845</ele>
        <time>2012-03-23T15:41:00Z</time>
      </trkpt>
      <trkpt lat="43.66512" lon="6.21429">
        <ele>844.7</ele>
        <time>2012-03-23T15:41:01Z</time>
      </trkpt>
      <trkpt lat="43.66499" lon="6.21444">
        <ele>841.9</ele>
        <time>2012-03-23T15:41:20Z</time>
      </trkpt>
      <trkpt lat="43.66493" lon="6.21452">
        <ele>840.7</ele>
        <time>2012-03-23T15:41:29Z</time>
      </trkpt>
      <trkpt lat="43.66488" lon="6.21461">
        <ele>839.4</ele>
        <time>2012-03-23T15:41:39Z</time>
      </trkpt>
      <trkpt lat="43.66484" lon="6.21471">
        <ele>837</ele>
        <time>2012-03-23T15:41:48Z</time>
      </trkpt>
      <trkpt lat="43.66482" lon="6.21483">
        <ele>835.8</ele>
        <time>2012-03-23T15:41:59Z</time>
      </trkpt>
      <trkpt lat="43.66479" lon="6.21494">
        <ele>834.1</ele>
        <time>2012-03-23T15:42:09Z</time>
      </trkpt>
      <trkpt lat="43.66479" lon="6.21495">
        <ele>834.1</ele>
        <time>2012-03-23T15:42:10Z</time>
      </trkpt>
      <trkpt lat="43.66473" lon="6.21515">
        <ele>830.9</ele>
        <time>2012-03-23T15:42:27Z</time>
      </trkpt>
      <trkpt lat="43.66471" lon="6.21526">
        <ele>830.2</ele>
        <time>2012-03-23T15:42:36Z</time>
      </trkpt>
      <trkpt lat="43.66469" lon="6.21538">
        <ele>829.4</ele>
        <time>2012-03-23T15:42:46Z</time>
      </trkpt>
      <trkpt lat="43.66467" lon="6.2155">
        <ele>827.8</ele>
        <time>2012-03-23T15:42:56Z</time>
      </trkpt>
      <trkpt lat="43.66464" lon="6.21561">
        <ele>827</ele>
        <time>2012-03-23T15:43:22Z</time>
      </trkpt>
      <trkpt lat="43.66464" lon="6.21561">
        <ele>827</ele>
        <time>2012-03-23T15:43:23Z</time>
      </trkpt>
      <trkpt lat="43.66459" lon="6.21585">
        <ele>825.3</ele>
        <time>2012-03-23T15:43:58Z</time>
      </trkpt>
      <trkpt lat="43.66456" lon="6.21596">
        <ele>824.9</ele>
        <time>2012-03-23T15:44:07Z</time>
      </trkpt>
      <trkpt lat="43.66452" lon="6.21606">
        <ele>825</ele>
        <time>2012-03-23T15:44:15Z</time>
      </trkpt>
      <trkpt lat="43.66449" lon="6.21617">
        <ele>825.5</ele>
        <time>2012-03-23T15:44:24Z</time>
      </trkpt>
      <trkpt lat="43.66449" lon="6.21618">
        <ele>825.6</ele>
        <time>2012-03-23T15:44:25Z</time>
      </trkpt>
      <trkpt lat="43.66447" lon="6.21639">
        <ele>824.8</ele>
        <time>2012-03-23T15:44:43Z</time>
      </trkpt>
      <trkpt lat="43.66446" lon="6.21651">
        <ele>826.1</ele>
        <time>2012-03-23T15:44:53Z</time>
      </trkpt>
      <trkpt lat="43.66444" lon="6.21662">
        <ele>826</ele>
        <time>2012-03-23T15:45:05Z</time>
      </trkpt>
      <trkpt lat="43.66439" lon="6.21672">
        <ele>825.9</ele>
        <time>2012-03-23T15:45:14Z</time>
      </trkpt>
      <trkpt lat="43.66435" lon="6.21681">
        <ele>826.3</ele>
        <time>2012-03-23T15:45:22Z</time>
      </trkpt>
      <trkpt lat="43.66429" lon="6.21689">
        <ele>826.5</ele>
        <time>2012-03-23T15:45:30Z</time>
      </trkpt>
      <trkpt lat="43.66428" lon="6.2169">
        <ele>827</ele>
        <time>2012-03-23T15:45:31Z</time>
      </trkpt>
      <trkpt lat="43.66416" lon="6.21706">
        <ele>828.5</ele>
        <time>2012-03-23T15:45:48Z</time>
      </trkpt>
      <trkpt lat="43.6641" lon="6.21715">
        <ele>830</ele>
        <time>2012-03-23T15:45:57Z</time>
      </trkpt>
      <trkpt lat="43.66405" lon="6.21725">
        <ele>830.7</ele>
        <time>2012-03-23T15:46:06Z</time>
      </trkpt>
      <trkpt lat="43.66401" lon="6.21735">
        <ele>830.9</ele>
        <time>2012-03-23T15:46:15Z</time>
      </trkpt>
      <trkpt lat="43.66397" lon="6.21747">
        <ele>831.2</ele>
        <time>2012-03-23T15:46:24Z</time>
      </trkpt>
      <trkpt lat="43.66393" lon="6.21758">
        <ele>832.6</ele>
        <time>2012-03-23T15:46:33Z</time>
      </trkpt>
      <trkpt lat="43.66393" lon="6.21759">
        <ele>832.9</ele>
        <time>2012-03-23T15:46:34Z</time>
      </trkpt>
      <trkpt lat="43.66384" lon="6.21778">
        <ele>833.7</ele>
        <time>2012-03-23T15:46:51Z</time>
      </trkpt>
      <trkpt lat="43.66379" lon="6.21787">
        <ele>833.3</ele>
        <time>2012-03-23T15:46:59Z</time>
      </trkpt>
      <trkpt lat="43.66375" lon="6.21797">
        <ele>833.8</ele>
        <time>2012-03-23T15:47:07Z</time>
      </trkpt>
      <trkpt lat="43.6637" lon="6.21807">
        <ele>834.6</ele>
        <time>2012-03-23T15:47:16Z</time>
      </trkpt>
      <trkpt lat="43.66365" lon="6.21817">
        <ele>834.3</ele>
        <time>2012-03-23T15:47:25Z</time>
      </trkpt>
      <trkpt lat="43.6636" lon="6.21826">
        <ele>835.2</ele>
        <time>2012-03-23T15:47:33Z</time>
      </trkpt>
      <trkpt lat="43.66356" lon="6.21835">
        <ele>835.5</ele>
        <time>2012-03-23T15:47:41Z</time>
      </trkpt>
      <trkpt lat="43.66355" lon="6.21836">
        <ele>835.8</ele>
        <time>2012-03-23T15:47:42Z</time>
      </trkpt>
      <trkpt lat="43.66345" lon="6.21853">
        <ele>836.9</ele>
        <time>2012-03-23T15:47:57Z</time>
      </trkpt>
      <trkpt lat="43.66339" lon="6.21861">
        <ele>836.6</ele>
        <time>2012-03-23T15:48:05Z</time>
      </trkpt>
      <trkpt lat="43.66333" lon="6.21869">
        <ele>837.5</ele>
        <time>2012-03-23T15:48:13Z</time>
      </trkpt>
      <trkpt lat="43.66327" lon="6.21878">
        <ele>837.7</ele>
        <time>2012-03-23T15:48:22Z</time>
      </trkpt>
      <trkpt lat="43.66321" lon="6.21886">
        <ele>837.9</ele>
        <time>2012-03-23T15:48:30Z</time>
      </trkpt>
      <trkpt lat="43.66317" lon="6.21896">
        <ele>838.8</ele>
        <time>2012-03-23T15:48:38Z</time>
      </trkpt>
      <trkpt lat="43.66313" lon="6.21907">
        <ele>839.2</ele>
        <time>2012-03-23T15:48:46Z</time>
      </trkpt>
      <trkpt lat="43.66313" lon="6.21909">
        <ele>839.3</ele>
        <time>2012-03-23T15:48:47Z</time>
      </trkpt>
      <trkpt lat="43.66309" lon="6.2193">
        <ele>838.7</ele>
        <time>2012-03-23T15:49:02Z</time>
      </trkpt>
      <trkpt lat="43.66306" lon="6.21941">
        <ele>839.4</ele>
        <time>2012-03-23T15:49:10Z</time>
      </trkpt>
      <trkpt lat="43.66304" lon="6.21951">
        <ele>838.2</ele>
        <time>2012-03-23T15:49:18Z</time>
      </trkpt>
      <trkpt lat="43.66301" lon="6.21962">
        <ele>838.5</ele>
        <time>2012-03-23T15:49:26Z</time>
      </trkpt>
      <trkpt lat="43.66298" lon="6.21973">
        <ele>837.2</ele>
        <time>2012-03-23T15:49:34Z</time>
      </trkpt>
      <trkpt lat="43.66295" lon="6.21984">
        <ele>837.6</ele>
        <time>2012-03-23T15:49:42Z</time>
      </trkpt>
      <trkpt lat="43.66292" lon="6.21996">
        <ele>837.5</ele>
        <time>2012-03-23T15:49:50Z</time>
      </trkpt>
      <trkpt lat="43.66292" lon="6.21997">
        <ele>837.8</ele>
        <time>2012-03-23T15:49:51Z</time>
      </trkpt>
      <trkpt lat="43.66287" lon="6.22018">
        <ele>837</ele>
        <time>2012-03-23T15:50:06Z</time>
      </trkpt>
      <trkpt lat="43.66283" lon="6.22027">
        <ele>835.9</ele>
        <time>2012-03-23T15:50:14Z</time>
      </trkpt>
      <trkpt lat="43.66277" lon="6.22036">
        <ele>835.6</ele>
        <time>2012-03-23T15:50:23Z</time>
      </trkpt>
      <trkpt lat="43.6627" lon="6.22044">
        <ele>834.7</ele>
        <time>2012-03-23T15:50:32Z</time>
      </trkpt>
      <trkpt lat="43.66264" lon="6.22051">
        <ele>833.6</ele>
        <time>2012-03-23T15:50:41Z</time>
      </trkpt>
      <trkpt lat="43.66257" lon="6.2206">
        <ele>831.3</ele>
        <time>2012-03-23T15:50:50Z</time>
      </trkpt>
      <trkpt lat="43.66251" lon="6.22068">
        <ele>831.4</ele>
        <time>2012-03-23T15:50:59Z</time>
      </trkpt>
      <trkpt lat="43.6625" lon="6.22069">
        <ele>831.2</ele>
        <time>2012-03-23T15:51:00Z</time>
      </trkpt>
      <trkpt lat="43.6624" lon="6.22086">
        <ele>829.6</ele>
        <time>2012-03-23T15:51:15Z</time>
      </trkpt>
      <trkpt lat="43.66237" lon="6.22096">
        <ele>828.6</ele>
        <time>2012-03-23T15:51:23Z</time>
      </trkpt>
      <trkpt lat="43.66234" lon="6.22107">
        <ele>829.1</ele>
        <time>2012-03-23T15:51:30Z</time>
      </trkpt>
      <trkpt lat="43.66231" lon="6.22118">
        <ele>828.8</ele>
        <time>2012-03-23T15:51:38Z</time>
      </trkpt>
      <trkpt lat="43.66227" lon="6.22128">
        <ele>829.1</ele>
        <time>2012-03-23T15:51:46Z</time>
      </trkpt>
      <trkpt lat="43.66225" lon="6.22139">
        <ele>829.2</ele>
        <time>2012-03-23T15:51:54Z</time>
      </trkpt>
      <trkpt lat="43.66222" lon="6.2215">
        <ele>829.2</ele>
        <time>2012-03-23T15:52:02Z</time>
      </trkpt>
      <trkpt lat="43.66221" lon="6.22152">
        <ele>829.4</ele>
        <time>2012-03-23T15:52:03Z</time>
      </trkpt>
      <trkpt lat="43.66215" lon="6.22172">
        <ele>829.3</ele>
        <time>2012-03-23T15:52:18Z</time>
      </trkpt>
      <trkpt lat="43.66212" lon="6.22184">
        <ele>828.6</ele>
        <time>2012-03-23T15:52:26Z</time>
      </trkpt>
      <trkpt lat="43.66209" lon="6.22195">
        <ele>828.7</ele>
        <time>2012-03-23T15:52:33Z</time>
      </trkpt>
      <trkpt lat="43.66207" lon="6.22207">
        <ele>828.3</ele>
        <time>2012-03-23T15:52:40Z</time>
      </trkpt>
      <trkpt lat="43.66205" lon="6.22218">
        <ele>828.7</ele>
        <time>2012-03-23T15:52:47Z</time>
      </trkpt>
      <trkpt lat="43.66204" lon="6.22229">
        <ele>828</ele>
        <time>2012-03-23T15:52:54Z</time>
      </trkpt>
      <trkpt lat="43.66202" lon="6.2224">
        <ele>828.1</ele>
        <time>2012-03-23T15:53:01Z</time>
      </trkpt>
      <trkpt lat="43.66199" lon="6.22251">
        <ele>827.5</ele>
        <time>2012-03-23T15:53:09Z</time>
      </trkpt>
      <trkpt lat="43.66199" lon="6.22252">
        <ele>827.4</ele>
        <time>2012-03-23T15:53:10Z</time>
      </trkpt>
      <trkpt lat="43.66195" lon="6.22274">
        <ele>826.2</ele>
        <time>2012-03-23T15:53:27Z</time>
      </trkpt>
      <trkpt lat="43.66194" lon="6.22286">
        <ele>826.1</ele>
        <time>2012-03-23T15:53:36Z</time>
      </trkpt>
      <trkpt lat="43.66192" lon="6.22297">
        <ele>826.3</ele>
        <time>2012-03-23T15:53:44Z</time>
      </trkpt>
      <trkpt lat="43.66192" lon="6.22309">
        <ele>826.3</ele>
        <time>2012-03-23T15:53:53Z</time>
      </trkpt>
      <trkpt lat="43.66189" lon="6.2232">
        <ele>826.2</ele>
        <time>2012-03-23T15:54:01Z</time>
      </trkpt>
      <trkpt lat="43.66187" lon="6.22331">
        <ele>825.8</ele>
        <time>2012-03-23T15:54:08Z</time>
      </trkpt>
      <trkpt lat="43.66183" lon="6.22342">
        <ele>825.2</ele>
        <time>2012-03-23T15:54:15Z</time>
      </trkpt>
      <trkpt lat="43.66183" lon="6.22343">
        <ele>825.1</ele>
        <time>2012-03-23T15:54:16Z</time>
      </trkpt>
      <trkpt lat="43.66181" lon="6.22366">
        <ele>824.1</ele>
        <time>2012-03-23T15:54:30Z</time>
      </trkpt>
      <trkpt lat="43.66181" lon="6.22377">
        <ele>822.4</ele>
        <time>2012-03-23T15:54:37Z</time>
      </trkpt>
      <trkpt lat="43.66182" lon="6.22389">
        <ele>823.3</ele>
        <time>2012-03-23T15:54:45Z</time>
      </trkpt>
      <trkpt lat="43.66182" lon="6.22401">
        <ele>822.5</ele>
        <time>2012-03-23T15:54:53Z</time>
      </trkpt>
      <trkpt lat="43.66183" lon="6.22412">
        <ele>821.3</ele>
        <time>2012-03-23T15:55:01Z</time>
      </trkpt>
      <trkpt lat="43.66184" lon="6.22424">
        <ele>821</ele>
        <time>2012-03-23T15:55:09Z</time>
      </trkpt>
      <trkpt lat="43.66186" lon="6.22436">
        <ele>820.8</ele>
        <time>2012-03-23T15:55:20Z</time>
      </trkpt>
      <trkpt lat="43.66187" lon="6.22436">
        <ele>820.5</ele>
        <time>2012-03-23T15:55:21Z</time>
      </trkpt>
      <trkpt lat="43.66184" lon="6.22448">
        <ele>820.6</ele>
        <time>2012-03-23T15:56:49Z</time>
      </trkpt>
      <trkpt lat="43.66187" lon="6.22459">
        <ele>820.8</ele>
        <time>2012-03-23T15:58:19Z</time>
      </trkpt>
      <trkpt lat="43.66192" lon="6.2248">
        <ele>818.2</ele>
        <time>2012-03-23T15:58:39Z</time>
      </trkpt>
      <trkpt lat="43.66197" lon="6.22489">
        <ele>816.7</ele>
        <time>2012-03-23T15:58:46Z</time>
      </trkpt>
      <trkpt lat="43.66203" lon="6.22496">
        <ele>816.2</ele>
        <time>2012-03-23T15:58:53Z</time>
      </trkpt>
      <trkpt lat="43.6621" lon="6.22503">
        <ele>814.6</ele>
        <time>2012-03-23T15:59:01Z</time>
      </trkpt>
      <trkpt lat="43.66216" lon="6.22511">
        <ele>813.2</ele>
        <time>2012-03-23T15:59:09Z</time>
      </trkpt>
      <trkpt lat="43.6622" lon="6.22521">
        <ele>811.6</ele>
        <time>2012-03-23T15:59:17Z</time>
      </trkpt>
      <trkpt lat="43.66222" lon="6.22533">
        <ele>811.6</ele>
        <time>2012-03-23T15:59:26Z</time>
      </trkpt>
      <trkpt lat="43.66222" lon="6.22535">
        <ele>811.5</ele>
        <time>2012-03-23T15:59:27Z</time>
      </trkpt>
      <trkpt lat="43.66221" lon="6.22556">
        <ele>809.8</ele>
        <time>2012-03-23T15:59:40Z</time>
      </trkpt>
      <trkpt lat="43.66218" lon="6.22567">
        <ele>809.1</ele>
        <time>2012-03-23T15:59:49Z</time>
      </trkpt>
      <trkpt lat="43.66216" lon="6.22578">
        <ele>807.5</ele>
        <time>2012-03-23T15:59:57Z</time>
      </trkpt>
      <trkpt lat="43.66213" lon="6.2259">
        <ele>806</ele>
        <time>2012-03-23T16:00:08Z</time>
      </trkpt>
      <trkpt lat="43.66209" lon="6.22599">
        <ele>804.7</ele>
        <time>2012-03-23T16:00:16Z</time>
      </trkpt>
      <trkpt lat="43.66206" lon="6.2261">
        <ele>802.3</ele>
        <time>2012-03-23T16:00:25Z</time>
      </trkpt>
      <trkpt lat="43.66206" lon="6.22623">
        <ele>802</ele>
        <time>2012-03-23T16:00:41Z</time>
      </trkpt>
      <trkpt lat="43.66206" lon="6.22623">
        <ele>801.7</ele>
        <time>2012-03-23T16:00:42Z</time>
      </trkpt>
    </trkseg>
  </trk>
</gpx>